<?xml version="1.0" encoding="UTF-8" standalone="no" ?>
<gpx xmlns="http://www.topografix.com/GPX/1/1" xmlns:xsi="http://www.w3.org/2001/XMLSchema-instance" xsi:schemaLocation="http://www.topografix.com/GPX/1/1 http://www.topografix.com/GPX/1/1/gpx.xsd" version="1.1" creator="VisuGPX - https://www.visugpx.com">
  <metadata>
    <name>assemblage des fichiers GPX velofrancette ouistreham saumur</name>
    <desc><![CDATA[assemblage des fichiers GPX velofrancette ouistreham saumur]]></desc>
  </metadata>
  <trk>
    <name><![CDATA[20180702212037-57JBc]]></name>
    <trkseg>
      <trkpt lat="47.82852" lon="-0.70255">
        <ele>28.7</ele>
        <time>2014-04-19T15:44:25Z</time>
      </trkpt>
      <trkpt lat="47.82844" lon="-0.70261">
        <ele>29.3</ele>
        <time>2014-04-19T15:44:29Z</time>
      </trkpt>
      <trkpt lat="47.82842" lon="-0.7026">
        <ele>29.3</ele>
        <time>2014-04-19T15:44:33Z</time>
      </trkpt>
      <trkpt lat="47.82842" lon="-0.7026">
        <ele>29.3</ele>
        <time>2014-04-19T15:45:34Z</time>
      </trkpt>
      <trkpt lat="47.82825" lon="-0.70258">
        <ele>29.3</ele>
        <time>2014-04-19T15:45:40Z</time>
      </trkpt>
      <trkpt lat="47.82792" lon="-0.70254">
        <ele>29.1</ele>
        <time>2014-04-19T15:45:48Z</time>
      </trkpt>
      <trkpt lat="47.82749" lon="-0.7025">
        <ele>29</ele>
        <time>2014-04-19T15:45:56Z</time>
      </trkpt>
      <trkpt lat="47.82707" lon="-0.70252">
        <ele>29</ele>
        <time>2014-04-19T15:46:04Z</time>
      </trkpt>
      <trkpt lat="47.82697" lon="-0.70254">
        <ele>29</ele>
        <time>2014-04-19T15:46:06Z</time>
      </trkpt>
      <trkpt lat="47.82665" lon="-0.70268">
        <ele>29</ele>
        <time>2014-04-19T15:46:12Z</time>
      </trkpt>
      <trkpt lat="47.82613" lon="-0.70287">
        <ele>29</ele>
        <time>2014-04-19T15:46:21Z</time>
      </trkpt>
      <trkpt lat="47.82593" lon="-0.70286">
        <ele>29</ele>
        <time>2014-04-19T15:46:25Z</time>
      </trkpt>
      <trkpt lat="47.82582" lon="-0.70292">
        <ele>28.9</ele>
        <time>2014-04-19T15:46:28Z</time>
      </trkpt>
      <trkpt lat="47.82573" lon="-0.70296">
        <ele>28.7</ele>
        <time>2014-04-19T15:46:30Z</time>
      </trkpt>
      <trkpt lat="47.8254" lon="-0.70312">
        <ele>29</ele>
        <time>2014-04-19T15:46:37Z</time>
      </trkpt>
      <trkpt lat="47.82505" lon="-0.7033">
        <ele>28.9</ele>
        <time>2014-04-19T15:46:44Z</time>
      </trkpt>
      <trkpt lat="47.82481" lon="-0.70343">
        <ele>29</ele>
        <time>2014-04-19T15:46:50Z</time>
      </trkpt>
      <trkpt lat="47.82469" lon="-0.70349">
        <ele>29</ele>
        <time>2014-04-19T15:46:55Z</time>
      </trkpt>
      <trkpt lat="47.82455" lon="-0.70356">
        <ele>28.9</ele>
        <time>2014-04-19T15:47:00Z</time>
      </trkpt>
      <trkpt lat="47.8243" lon="-0.70368">
        <ele>28.8</ele>
        <time>2014-04-19T15:47:07Z</time>
      </trkpt>
      <trkpt lat="47.82401" lon="-0.70378">
        <ele>28.6</ele>
        <time>2014-04-19T15:47:15Z</time>
      </trkpt>
      <trkpt lat="47.8238" lon="-0.70386">
        <ele>29.1</ele>
        <time>2014-04-19T15:47:22Z</time>
      </trkpt>
      <trkpt lat="47.82373" lon="-0.70388">
        <ele>29.4</ele>
        <time>2014-04-19T15:47:24Z</time>
      </trkpt>
      <trkpt lat="47.82357" lon="-0.70388">
        <ele>29.7</ele>
        <time>2014-04-19T15:47:28Z</time>
      </trkpt>
      <trkpt lat="47.82317" lon="-0.70374">
        <ele>28.8</ele>
        <time>2014-04-19T15:47:37Z</time>
      </trkpt>
      <trkpt lat="47.82304" lon="-0.70367">
        <ele>29.3</ele>
        <time>2014-04-19T15:47:40Z</time>
      </trkpt>
      <trkpt lat="47.82294" lon="-0.70362">
        <ele>29.5</ele>
        <time>2014-04-19T15:47:42Z</time>
      </trkpt>
      <trkpt lat="47.82277" lon="-0.70354">
        <ele>29.3</ele>
        <time>2014-04-19T15:47:46Z</time>
      </trkpt>
      <trkpt lat="47.82262" lon="-0.70344">
        <ele>29.3</ele>
        <time>2014-04-19T15:47:50Z</time>
      </trkpt>
      <trkpt lat="47.82228" lon="-0.70321">
        <ele>28.9</ele>
        <time>2014-04-19T15:47:58Z</time>
      </trkpt>
      <trkpt lat="47.82197" lon="-0.703">
        <ele>29.3</ele>
        <time>2014-04-19T15:48:05Z</time>
      </trkpt>
      <trkpt lat="47.82154" lon="-0.7027">
        <ele>29</ele>
        <time>2014-04-19T15:48:14Z</time>
      </trkpt>
      <trkpt lat="47.8211" lon="-0.70242">
        <ele>30.1</ele>
        <time>2014-04-19T15:48:23Z</time>
      </trkpt>
      <trkpt lat="47.82083" lon="-0.70224">
        <ele>29.6</ele>
        <time>2014-04-19T15:48:29Z</time>
      </trkpt>
      <trkpt lat="47.82048" lon="-0.70201">
        <ele>29.7</ele>
        <time>2014-04-19T15:48:36Z</time>
      </trkpt>
      <trkpt lat="47.82021" lon="-0.70184">
        <ele>30.5</ele>
        <time>2014-04-19T15:48:42Z</time>
      </trkpt>
      <trkpt lat="47.81989" lon="-0.7016">
        <ele>30.4</ele>
        <time>2014-04-19T15:48:49Z</time>
      </trkpt>
      <trkpt lat="47.81984" lon="-0.70156">
        <ele>30.5</ele>
        <time>2014-04-19T15:48:50Z</time>
      </trkpt>
      <trkpt lat="47.81944" lon="-0.7012">
        <ele>29.4</ele>
        <time>2014-04-19T15:48:58Z</time>
      </trkpt>
      <trkpt lat="47.81931" lon="-0.70107">
        <ele>29.6</ele>
        <time>2014-04-19T15:49:02Z</time>
      </trkpt>
      <trkpt lat="47.81927" lon="-0.70103">
        <ele>29.6</ele>
        <time>2014-04-19T15:49:04Z</time>
      </trkpt>
      <trkpt lat="47.81895" lon="-0.70064">
        <ele>30.3</ele>
        <time>2014-04-19T15:49:13Z</time>
      </trkpt>
      <trkpt lat="47.81861" lon="-0.70017">
        <ele>29.8</ele>
        <time>2014-04-19T15:49:22Z</time>
      </trkpt>
      <trkpt lat="47.81834" lon="-0.69978">
        <ele>28.3</ele>
        <time>2014-04-19T15:49:30Z</time>
      </trkpt>
      <trkpt lat="47.8181" lon="-0.69943">
        <ele>28.7</ele>
        <time>2014-04-19T15:49:37Z</time>
      </trkpt>
      <trkpt lat="47.81797" lon="-0.69925">
        <ele>29</ele>
        <time>2014-04-19T15:49:41Z</time>
      </trkpt>
      <trkpt lat="47.81774" lon="-0.69885">
        <ele>28.7</ele>
        <time>2014-04-19T15:49:49Z</time>
      </trkpt>
      <trkpt lat="47.81754" lon="-0.69859">
        <ele>28.3</ele>
        <time>2014-04-19T15:49:55Z</time>
      </trkpt>
      <trkpt lat="47.81735" lon="-0.69831">
        <ele>28</ele>
        <time>2014-04-19T15:50:01Z</time>
      </trkpt>
      <trkpt lat="47.81724" lon="-0.69812">
        <ele>28.4</ele>
        <time>2014-04-19T15:50:05Z</time>
      </trkpt>
      <trkpt lat="47.81701" lon="-0.69754">
        <ele>29.9</ele>
        <time>2014-04-19T15:50:14Z</time>
      </trkpt>
      <trkpt lat="47.81688" lon="-0.69697">
        <ele>27.6</ele>
        <time>2014-04-19T15:50:21Z</time>
      </trkpt>
      <trkpt lat="47.81681" lon="-0.69638">
        <ele>28.5</ele>
        <time>2014-04-19T15:50:28Z</time>
      </trkpt>
      <trkpt lat="47.81674" lon="-0.69578">
        <ele>29.6</ele>
        <time>2014-04-19T15:50:35Z</time>
      </trkpt>
      <trkpt lat="47.81669" lon="-0.69518">
        <ele>29</ele>
        <time>2014-04-19T15:50:42Z</time>
      </trkpt>
      <trkpt lat="47.81671" lon="-0.69475">
        <ele>28.5</ele>
        <time>2014-04-19T15:50:47Z</time>
      </trkpt>
      <trkpt lat="47.81673" lon="-0.69417">
        <ele>30.7</ele>
        <time>2014-04-19T15:50:54Z</time>
      </trkpt>
      <trkpt lat="47.81673" lon="-0.69369">
        <ele>28.2</ele>
        <time>2014-04-19T15:51:00Z</time>
      </trkpt>
      <trkpt lat="47.81673" lon="-0.69324">
        <ele>27.6</ele>
        <time>2014-04-19T15:51:06Z</time>
      </trkpt>
      <trkpt lat="47.81673" lon="-0.69291">
        <ele>27.6</ele>
        <time>2014-04-19T15:51:10Z</time>
      </trkpt>
      <trkpt lat="47.81673" lon="-0.69277">
        <ele>27.6</ele>
        <time>2014-04-19T15:51:12Z</time>
      </trkpt>
      <trkpt lat="47.81673" lon="-0.69264">
        <ele>27.6</ele>
        <time>2014-04-19T15:51:14Z</time>
      </trkpt>
      <trkpt lat="47.81674" lon="-0.69249">
        <ele>27.4</ele>
        <time>2014-04-19T15:51:16Z</time>
      </trkpt>
      <trkpt lat="47.81677" lon="-0.69207">
        <ele>26.6</ele>
        <time>2014-04-19T15:51:23Z</time>
      </trkpt>
      <trkpt lat="47.81681" lon="-0.69154">
        <ele>26.5</ele>
        <time>2014-04-19T15:51:30Z</time>
      </trkpt>
      <trkpt lat="47.81684" lon="-0.69098">
        <ele>26.8</ele>
        <time>2014-04-19T15:51:37Z</time>
      </trkpt>
      <trkpt lat="47.81688" lon="-0.69037">
        <ele>26.5</ele>
        <time>2014-04-19T15:51:45Z</time>
      </trkpt>
      <trkpt lat="47.81688" lon="-0.68991">
        <ele>26.7</ele>
        <time>2014-04-19T15:51:51Z</time>
      </trkpt>
      <trkpt lat="47.81684" lon="-0.68919">
        <ele>26.3</ele>
        <time>2014-04-19T15:52:00Z</time>
      </trkpt>
      <trkpt lat="47.81676" lon="-0.68839">
        <ele>26.7</ele>
        <time>2014-04-19T15:52:10Z</time>
      </trkpt>
      <trkpt lat="47.81668" lon="-0.68786">
        <ele>26.9</ele>
        <time>2014-04-19T15:52:17Z</time>
      </trkpt>
      <trkpt lat="47.81659" lon="-0.68718">
        <ele>29.3</ele>
        <time>2014-04-19T15:52:26Z</time>
      </trkpt>
      <trkpt lat="47.81654" lon="-0.68676">
        <ele>30.5</ele>
        <time>2014-04-19T15:52:32Z</time>
      </trkpt>
      <trkpt lat="47.81648" lon="-0.68616">
        <ele>33.2</ele>
        <time>2014-04-19T15:52:40Z</time>
      </trkpt>
      <trkpt lat="47.81644" lon="-0.68557">
        <ele>31.6</ele>
        <time>2014-04-19T15:52:47Z</time>
      </trkpt>
      <trkpt lat="47.81643" lon="-0.68549">
        <ele>31.5</ele>
        <time>2014-04-19T15:52:48Z</time>
      </trkpt>
      <trkpt lat="47.81638" lon="-0.68515">
        <ele>30.1</ele>
        <time>2014-04-19T15:52:52Z</time>
      </trkpt>
      <trkpt lat="47.8163" lon="-0.68483">
        <ele>30.5</ele>
        <time>2014-04-19T15:52:56Z</time>
      </trkpt>
      <trkpt lat="47.81623" lon="-0.68412">
        <ele>29.9</ele>
        <time>2014-04-19T15:53:04Z</time>
      </trkpt>
      <trkpt lat="47.81618" lon="-0.68362">
        <ele>31.9</ele>
        <time>2014-04-19T15:53:10Z</time>
      </trkpt>
      <trkpt lat="47.81612" lon="-0.6831">
        <ele>29.3</ele>
        <time>2014-04-19T15:53:17Z</time>
      </trkpt>
      <trkpt lat="47.81604" lon="-0.68254">
        <ele>28.8</ele>
        <time>2014-04-19T15:53:24Z</time>
      </trkpt>
      <trkpt lat="47.816" lon="-0.68231">
        <ele>28.6</ele>
        <time>2014-04-19T15:53:27Z</time>
      </trkpt>
      <trkpt lat="47.81595" lon="-0.68179">
        <ele>27.7</ele>
        <time>2014-04-19T15:53:35Z</time>
      </trkpt>
      <trkpt lat="47.81591" lon="-0.68152">
        <ele>27.1</ele>
        <time>2014-04-19T15:53:39Z</time>
      </trkpt>
      <trkpt lat="47.8158" lon="-0.68104">
        <ele>26.9</ele>
        <time>2014-04-19T15:53:45Z</time>
      </trkpt>
      <trkpt lat="47.81574" lon="-0.68082">
        <ele>26.3</ele>
        <time>2014-04-19T15:53:48Z</time>
      </trkpt>
      <trkpt lat="47.81561" lon="-0.68053">
        <ele>26.7</ele>
        <time>2014-04-19T15:53:52Z</time>
      </trkpt>
      <trkpt lat="47.81531" lon="-0.6801">
        <ele>26.9</ele>
        <time>2014-04-19T15:53:59Z</time>
      </trkpt>
      <trkpt lat="47.81505" lon="-0.67993">
        <ele>26.8</ele>
        <time>2014-04-19T15:54:04Z</time>
      </trkpt>
      <trkpt lat="47.81466" lon="-0.67984">
        <ele>26.5</ele>
        <time>2014-04-19T15:54:11Z</time>
      </trkpt>
      <trkpt lat="47.81431" lon="-0.67979">
        <ele>26.7</ele>
        <time>2014-04-19T15:54:17Z</time>
      </trkpt>
      <trkpt lat="47.8138" lon="-0.67962">
        <ele>26.6</ele>
        <time>2014-04-19T15:54:25Z</time>
      </trkpt>
      <trkpt lat="47.8133" lon="-0.67941">
        <ele>26.9</ele>
        <time>2014-04-19T15:54:33Z</time>
      </trkpt>
      <trkpt lat="47.8127" lon="-0.67916">
        <ele>27</ele>
        <time>2014-04-19T15:54:43Z</time>
      </trkpt>
      <trkpt lat="47.81218" lon="-0.67892">
        <ele>27</ele>
        <time>2014-04-19T15:54:52Z</time>
      </trkpt>
      <trkpt lat="47.81198" lon="-0.67881">
        <ele>26.7</ele>
        <time>2014-04-19T15:54:56Z</time>
      </trkpt>
      <trkpt lat="47.81148" lon="-0.67858">
        <ele>26.9</ele>
        <time>2014-04-19T15:55:05Z</time>
      </trkpt>
      <trkpt lat="47.81102" lon="-0.67847">
        <ele>26.5</ele>
        <time>2014-04-19T15:55:13Z</time>
      </trkpt>
      <trkpt lat="47.81059" lon="-0.67851">
        <ele>26.6</ele>
        <time>2014-04-19T15:55:20Z</time>
      </trkpt>
      <trkpt lat="47.81012" lon="-0.67858">
        <ele>26.9</ele>
        <time>2014-04-19T15:55:28Z</time>
      </trkpt>
      <trkpt lat="47.80952" lon="-0.67862">
        <ele>27</ele>
        <time>2014-04-19T15:55:38Z</time>
      </trkpt>
      <trkpt lat="47.80885" lon="-0.67868">
        <ele>26.3</ele>
        <time>2014-04-19T15:55:49Z</time>
      </trkpt>
      <trkpt lat="47.80843" lon="-0.67879">
        <ele>26.6</ele>
        <time>2014-04-19T15:55:56Z</time>
      </trkpt>
      <trkpt lat="47.80806" lon="-0.6789">
        <ele>26</ele>
        <time>2014-04-19T15:56:02Z</time>
      </trkpt>
      <trkpt lat="47.80764" lon="-0.67901">
        <ele>26.7</ele>
        <time>2014-04-19T15:56:09Z</time>
      </trkpt>
      <trkpt lat="47.80727" lon="-0.67904">
        <ele>26.5</ele>
        <time>2014-04-19T15:56:15Z</time>
      </trkpt>
      <trkpt lat="47.80711" lon="-0.67901">
        <ele>26.9</ele>
        <time>2014-04-19T15:56:18Z</time>
      </trkpt>
      <trkpt lat="47.80682" lon="-0.6789">
        <ele>28.4</ele>
        <time>2014-04-19T15:56:25Z</time>
      </trkpt>
      <trkpt lat="47.80663" lon="-0.67878">
        <ele>28.9</ele>
        <time>2014-04-19T15:56:31Z</time>
      </trkpt>
      <trkpt lat="47.80645" lon="-0.67861">
        <ele>28.3</ele>
        <time>2014-04-19T15:56:36Z</time>
      </trkpt>
      <trkpt lat="47.80617" lon="-0.67841">
        <ele>28</ele>
        <time>2014-04-19T15:56:43Z</time>
      </trkpt>
      <trkpt lat="47.80589" lon="-0.67831">
        <ele>26.9</ele>
        <time>2014-04-19T15:56:49Z</time>
      </trkpt>
      <trkpt lat="47.80546" lon="-0.67811">
        <ele>27.2</ele>
        <time>2014-04-19T15:56:58Z</time>
      </trkpt>
      <trkpt lat="47.80508" lon="-0.67796">
        <ele>26.6</ele>
        <time>2014-04-19T15:57:05Z</time>
      </trkpt>
      <trkpt lat="47.80466" lon="-0.67785">
        <ele>26.4</ele>
        <time>2014-04-19T15:57:12Z</time>
      </trkpt>
      <trkpt lat="47.80411" lon="-0.67775">
        <ele>26.9</ele>
        <time>2014-04-19T15:57:21Z</time>
      </trkpt>
      <trkpt lat="47.80368" lon="-0.67771">
        <ele>26.8</ele>
        <time>2014-04-19T15:57:28Z</time>
      </trkpt>
      <trkpt lat="47.80319" lon="-0.67768">
        <ele>26.7</ele>
        <time>2014-04-19T15:57:36Z</time>
      </trkpt>
      <trkpt lat="47.80256" lon="-0.67761">
        <ele>27.6</ele>
        <time>2014-04-19T15:57:46Z</time>
      </trkpt>
      <trkpt lat="47.80195" lon="-0.67751">
        <ele>27.2</ele>
        <time>2014-04-19T15:57:56Z</time>
      </trkpt>
      <trkpt lat="47.80134" lon="-0.67736">
        <ele>29</ele>
        <time>2014-04-19T15:58:06Z</time>
      </trkpt>
      <trkpt lat="47.80107" lon="-0.67722">
        <ele>29.5</ele>
        <time>2014-04-19T15:58:11Z</time>
      </trkpt>
      <trkpt lat="47.80088" lon="-0.6771">
        <ele>30</ele>
        <time>2014-04-19T15:58:16Z</time>
      </trkpt>
      <trkpt lat="47.80076" lon="-0.67702">
        <ele>29.3</ele>
        <time>2014-04-19T15:58:20Z</time>
      </trkpt>
      <trkpt lat="47.80068" lon="-0.67699">
        <ele>29.4</ele>
        <time>2014-04-19T15:58:23Z</time>
      </trkpt>
      <trkpt lat="47.80051" lon="-0.67685">
        <ele>29.4</ele>
        <time>2014-04-19T15:58:28Z</time>
      </trkpt>
      <trkpt lat="47.80042" lon="-0.67676">
        <ele>29.2</ele>
        <time>2014-04-19T15:58:31Z</time>
      </trkpt>
      <trkpt lat="47.80013" lon="-0.67654">
        <ele>31.2</ele>
        <time>2014-04-19T15:58:39Z</time>
      </trkpt>
      <trkpt lat="47.80005" lon="-0.67643">
        <ele>30.5</ele>
        <time>2014-04-19T15:58:42Z</time>
      </trkpt>
      <trkpt lat="47.79993" lon="-0.67621">
        <ele>29.8</ele>
        <time>2014-04-19T15:58:46Z</time>
      </trkpt>
      <trkpt lat="47.79978" lon="-0.67595">
        <ele>31.3</ele>
        <time>2014-04-19T15:58:51Z</time>
      </trkpt>
      <trkpt lat="47.79968" lon="-0.67579">
        <ele>30.8</ele>
        <time>2014-04-19T15:58:54Z</time>
      </trkpt>
      <trkpt lat="47.79951" lon="-0.6755">
        <ele>30.5</ele>
        <time>2014-04-19T15:59:00Z</time>
      </trkpt>
      <trkpt lat="47.79945" lon="-0.67541">
        <ele>29.7</ele>
        <time>2014-04-19T15:59:02Z</time>
      </trkpt>
      <trkpt lat="47.79939" lon="-0.6753">
        <ele>29.8</ele>
        <time>2014-04-19T15:59:04Z</time>
      </trkpt>
      <trkpt lat="47.79929" lon="-0.67513">
        <ele>32.1</ele>
        <time>2014-04-19T15:59:07Z</time>
      </trkpt>
      <trkpt lat="47.79922" lon="-0.67499">
        <ele>32.3</ele>
        <time>2014-04-19T15:59:09Z</time>
      </trkpt>
      <trkpt lat="47.79905" lon="-0.67463">
        <ele>31.5</ele>
        <time>2014-04-19T15:59:16Z</time>
      </trkpt>
      <trkpt lat="47.79887" lon="-0.67426">
        <ele>30.3</ele>
        <time>2014-04-19T15:59:23Z</time>
      </trkpt>
      <trkpt lat="47.79873" lon="-0.67397">
        <ele>31.6</ele>
        <time>2014-04-19T15:59:28Z</time>
      </trkpt>
      <trkpt lat="47.79867" lon="-0.67384">
        <ele>31.6</ele>
        <time>2014-04-19T15:59:30Z</time>
      </trkpt>
      <trkpt lat="47.79846" lon="-0.67339">
        <ele>28.2</ele>
        <time>2014-04-19T15:59:37Z</time>
      </trkpt>
      <trkpt lat="47.79836" lon="-0.6732">
        <ele>26.9</ele>
        <time>2014-04-19T15:59:40Z</time>
      </trkpt>
      <trkpt lat="47.79813" lon="-0.67287">
        <ele>27</ele>
        <time>2014-04-19T15:59:46Z</time>
      </trkpt>
      <trkpt lat="47.79789" lon="-0.67254">
        <ele>26.8</ele>
        <time>2014-04-19T15:59:52Z</time>
      </trkpt>
      <trkpt lat="47.79764" lon="-0.67224">
        <ele>26.6</ele>
        <time>2014-04-19T15:59:58Z</time>
      </trkpt>
      <trkpt lat="47.79737" lon="-0.67196">
        <ele>26.5</ele>
        <time>2014-04-19T16:00:04Z</time>
      </trkpt>
      <trkpt lat="47.79697" lon="-0.67157">
        <ele>26.6</ele>
        <time>2014-04-19T16:00:12Z</time>
      </trkpt>
      <trkpt lat="47.79688" lon="-0.67148">
        <ele>26.4</ele>
        <time>2014-04-19T16:00:14Z</time>
      </trkpt>
      <trkpt lat="47.79661" lon="-0.67121">
        <ele>26.4</ele>
        <time>2014-04-19T16:00:20Z</time>
      </trkpt>
      <trkpt lat="47.79631" lon="-0.67096">
        <ele>26.5</ele>
        <time>2014-04-19T16:00:26Z</time>
      </trkpt>
      <trkpt lat="47.79589" lon="-0.67061">
        <ele>26.8</ele>
        <time>2014-04-19T16:00:34Z</time>
      </trkpt>
      <trkpt lat="47.79552" lon="-0.67038">
        <ele>26.4</ele>
        <time>2014-04-19T16:00:41Z</time>
      </trkpt>
      <trkpt lat="47.79518" lon="-0.67027">
        <ele>27</ele>
        <time>2014-04-19T16:00:47Z</time>
      </trkpt>
      <trkpt lat="47.79467" lon="-0.67016">
        <ele>26.6</ele>
        <time>2014-04-19T16:00:56Z</time>
      </trkpt>
      <trkpt lat="47.79431" lon="-0.67011">
        <ele>26.4</ele>
        <time>2014-04-19T16:01:03Z</time>
      </trkpt>
      <trkpt lat="47.79408" lon="-0.67007">
        <ele>26.3</ele>
        <time>2014-04-19T16:01:08Z</time>
      </trkpt>
      <trkpt lat="47.79392" lon="-0.67004">
        <ele>26.3</ele>
        <time>2014-04-19T16:01:12Z</time>
      </trkpt>
      <trkpt lat="47.79363" lon="-0.66999">
        <ele>27.9</ele>
        <time>2014-04-19T16:01:19Z</time>
      </trkpt>
      <trkpt lat="47.79345" lon="-0.66995">
        <ele>27.7</ele>
        <time>2014-04-19T16:01:25Z</time>
      </trkpt>
      <trkpt lat="47.79328" lon="-0.66994">
        <ele>27.6</ele>
        <time>2014-04-19T16:01:30Z</time>
      </trkpt>
      <trkpt lat="47.79309" lon="-0.66991">
        <ele>27.1</ele>
        <time>2014-04-19T16:01:35Z</time>
      </trkpt>
      <trkpt lat="47.79282" lon="-0.66988">
        <ele>26.7</ele>
        <time>2014-04-19T16:01:41Z</time>
      </trkpt>
      <trkpt lat="47.79248" lon="-0.66983">
        <ele>25.8</ele>
        <time>2014-04-19T16:01:48Z</time>
      </trkpt>
      <trkpt lat="47.79206" lon="-0.66976">
        <ele>26.8</ele>
        <time>2014-04-19T16:01:56Z</time>
      </trkpt>
      <trkpt lat="47.79176" lon="-0.66973">
        <ele>27.1</ele>
        <time>2014-04-19T16:02:02Z</time>
      </trkpt>
      <trkpt lat="47.79142" lon="-0.66964">
        <ele>26.4</ele>
        <time>2014-04-19T16:02:08Z</time>
      </trkpt>
      <trkpt lat="47.79106" lon="-0.66954">
        <ele>26.2</ele>
        <time>2014-04-19T16:02:14Z</time>
      </trkpt>
      <trkpt lat="47.79056" lon="-0.66945">
        <ele>26</ele>
        <time>2014-04-19T16:02:22Z</time>
      </trkpt>
      <trkpt lat="47.79025" lon="-0.66938">
        <ele>25.8</ele>
        <time>2014-04-19T16:02:27Z</time>
      </trkpt>
      <trkpt lat="47.78982" lon="-0.66927">
        <ele>25.4</ele>
        <time>2014-04-19T16:02:34Z</time>
      </trkpt>
      <trkpt lat="47.78927" lon="-0.66916">
        <ele>26</ele>
        <time>2014-04-19T16:02:43Z</time>
      </trkpt>
      <trkpt lat="47.78909" lon="-0.66915">
        <ele>25.9</ele>
        <time>2014-04-19T16:02:46Z</time>
      </trkpt>
      <trkpt lat="47.78867" lon="-0.66909">
        <ele>25.7</ele>
        <time>2014-04-19T16:02:54Z</time>
      </trkpt>
      <trkpt lat="47.78829" lon="-0.66909">
        <ele>25.7</ele>
        <time>2014-04-19T16:03:01Z</time>
      </trkpt>
      <trkpt lat="47.78794" lon="-0.66906">
        <ele>25.6</ele>
        <time>2014-04-19T16:03:07Z</time>
      </trkpt>
      <trkpt lat="47.78792" lon="-0.66905">
        <ele>25.6</ele>
        <time>2014-04-19T16:03:08Z</time>
      </trkpt>
      <trkpt lat="47.7875" lon="-0.66906">
        <ele>25.6</ele>
        <time>2014-04-19T16:03:16Z</time>
      </trkpt>
      <trkpt lat="47.78735" lon="-0.66907">
        <ele>25.6</ele>
        <time>2014-04-19T16:03:19Z</time>
      </trkpt>
      <trkpt lat="47.78703" lon="-0.66907">
        <ele>25.7</ele>
        <time>2014-04-19T16:03:25Z</time>
      </trkpt>
      <trkpt lat="47.78656" lon="-0.66907">
        <ele>25.9</ele>
        <time>2014-04-19T16:03:33Z</time>
      </trkpt>
      <trkpt lat="47.78597" lon="-0.66897">
        <ele>25.9</ele>
        <time>2014-04-19T16:03:43Z</time>
      </trkpt>
      <trkpt lat="47.78572" lon="-0.6689">
        <ele>26.4</ele>
        <time>2014-04-19T16:03:48Z</time>
      </trkpt>
      <trkpt lat="47.78557" lon="-0.66884">
        <ele>26.6</ele>
        <time>2014-04-19T16:03:52Z</time>
      </trkpt>
      <trkpt lat="47.78549" lon="-0.66881">
        <ele>26.4</ele>
        <time>2014-04-19T16:03:55Z</time>
      </trkpt>
      <trkpt lat="47.78543" lon="-0.66879">
        <ele>26.3</ele>
        <time>2014-04-19T16:04:37Z</time>
      </trkpt>
      <trkpt lat="47.78519" lon="-0.66871">
        <ele>26.1</ele>
        <time>2014-04-19T16:04:44Z</time>
      </trkpt>
      <trkpt lat="47.78491" lon="-0.66864">
        <ele>26.5</ele>
        <time>2014-04-19T16:04:51Z</time>
      </trkpt>
      <trkpt lat="47.78483" lon="-0.66862">
        <ele>26.7</ele>
        <time>2014-04-19T16:04:53Z</time>
      </trkpt>
      <trkpt lat="47.78472" lon="-0.6686">
        <ele>26.9</ele>
        <time>2014-04-19T16:04:56Z</time>
      </trkpt>
      <trkpt lat="47.78431" lon="-0.66856">
        <ele>27.4</ele>
        <time>2014-04-19T16:05:05Z</time>
      </trkpt>
      <trkpt lat="47.78392" lon="-0.66857">
        <ele>27.6</ele>
        <time>2014-04-19T16:05:13Z</time>
      </trkpt>
      <trkpt lat="47.78356" lon="-0.66861">
        <ele>26.8</ele>
        <time>2014-04-19T16:05:21Z</time>
      </trkpt>
      <trkpt lat="47.7831" lon="-0.66875">
        <ele>26.9</ele>
        <time>2014-04-19T16:05:30Z</time>
      </trkpt>
      <trkpt lat="47.7826" lon="-0.66897">
        <ele>26.3</ele>
        <time>2014-04-19T16:05:39Z</time>
      </trkpt>
      <trkpt lat="47.78229" lon="-0.66918">
        <ele>27.3</ele>
        <time>2014-04-19T16:05:46Z</time>
      </trkpt>
      <trkpt lat="47.78197" lon="-0.66942">
        <ele>26.9</ele>
        <time>2014-04-19T16:05:54Z</time>
      </trkpt>
      <trkpt lat="47.78168" lon="-0.66967">
        <ele>27.5</ele>
        <time>2014-04-19T16:06:02Z</time>
      </trkpt>
      <trkpt lat="47.78161" lon="-0.66972">
        <ele>27.4</ele>
        <time>2014-04-19T16:06:04Z</time>
      </trkpt>
      <trkpt lat="47.78132" lon="-0.66993">
        <ele>27.3</ele>
        <time>2014-04-19T16:06:12Z</time>
      </trkpt>
      <trkpt lat="47.78125" lon="-0.66999">
        <ele>26.9</ele>
        <time>2014-04-19T16:06:14Z</time>
      </trkpt>
      <trkpt lat="47.78086" lon="-0.6703">
        <ele>26.8</ele>
        <time>2014-04-19T16:06:25Z</time>
      </trkpt>
      <trkpt lat="47.78071" lon="-0.67044">
        <ele>27.7</ele>
        <time>2014-04-19T16:06:30Z</time>
      </trkpt>
      <trkpt lat="47.7805" lon="-0.67063">
        <ele>27.4</ele>
        <time>2014-04-19T16:06:36Z</time>
      </trkpt>
      <trkpt lat="47.78034" lon="-0.67077">
        <ele>27.8</ele>
        <time>2014-04-19T16:06:40Z</time>
      </trkpt>
      <trkpt lat="47.78007" lon="-0.67098">
        <ele>27.1</ele>
        <time>2014-04-19T16:06:46Z</time>
      </trkpt>
      <trkpt lat="47.77973" lon="-0.67117">
        <ele>27.2</ele>
        <time>2014-04-19T16:06:53Z</time>
      </trkpt>
      <trkpt lat="47.7793" lon="-0.67134">
        <ele>27.1</ele>
        <time>2014-04-19T16:07:01Z</time>
      </trkpt>
      <trkpt lat="47.77872" lon="-0.67148">
        <ele>26.3</ele>
        <time>2014-04-19T16:07:11Z</time>
      </trkpt>
      <trkpt lat="47.77813" lon="-0.67159">
        <ele>26.5</ele>
        <time>2014-04-19T16:07:21Z</time>
      </trkpt>
      <trkpt lat="47.77773" lon="-0.67167">
        <ele>27.8</ele>
        <time>2014-04-19T16:07:29Z</time>
      </trkpt>
      <trkpt lat="47.77751" lon="-0.6717">
        <ele>26.9</ele>
        <time>2014-04-19T16:07:34Z</time>
      </trkpt>
      <trkpt lat="47.77742" lon="-0.67172">
        <ele>27.1</ele>
        <time>2014-04-19T16:07:39Z</time>
      </trkpt>
      <trkpt lat="47.7773" lon="-0.67175">
        <ele>27.4</ele>
        <time>2014-04-19T16:07:44Z</time>
      </trkpt>
      <trkpt lat="47.77721" lon="-0.67177">
        <ele>27.5</ele>
        <time>2014-04-19T16:07:48Z</time>
      </trkpt>
      <trkpt lat="47.77713" lon="-0.67178">
        <ele>27.2</ele>
        <time>2014-04-19T16:07:52Z</time>
      </trkpt>
      <trkpt lat="47.7771" lon="-0.67179">
        <ele>27</ele>
        <time>2014-04-19T16:08:00Z</time>
      </trkpt>
      <trkpt lat="47.7771" lon="-0.67179">
        <ele>27</ele>
        <time>2014-04-19T16:08:14Z</time>
      </trkpt>
      <trkpt lat="47.7771" lon="-0.67179">
        <ele>27</ele>
        <time>2014-04-19T16:08:32Z</time>
      </trkpt>
      <trkpt lat="47.7771" lon="-0.67179">
        <ele>27</ele>
        <time>2014-04-19T16:13:28Z</time>
      </trkpt>
      <trkpt lat="47.7771" lon="-0.67179">
        <ele>27</ele>
        <time>2014-04-19T16:14:08Z</time>
      </trkpt>
      <trkpt lat="47.7771" lon="-0.67179">
        <ele>27</ele>
        <time>2014-04-19T16:14:44Z</time>
      </trkpt>
      <trkpt lat="47.7771" lon="-0.67179">
        <ele>27</ele>
        <time>2014-04-19T16:14:53Z</time>
      </trkpt>
      <trkpt lat="47.7771" lon="-0.67179">
        <ele>27</ele>
        <time>2014-04-19T16:15:00Z</time>
      </trkpt>
      <trkpt lat="47.7771" lon="-0.67179">
        <ele>27</ele>
        <time>2014-04-19T16:15:16Z</time>
      </trkpt>
      <trkpt lat="47.77707" lon="-0.67179">
        <ele>26.9</ele>
        <time>2014-04-19T16:15:24Z</time>
      </trkpt>
      <trkpt lat="47.77706" lon="-0.67179">
        <ele>26.8</ele>
        <time>2014-04-19T16:19:02Z</time>
      </trkpt>
      <trkpt lat="47.777" lon="-0.6718">
        <ele>26.6</ele>
        <time>2014-04-19T16:19:05Z</time>
      </trkpt>
      <trkpt lat="47.7769" lon="-0.67183">
        <ele>26.4</ele>
        <time>2014-04-19T16:19:10Z</time>
      </trkpt>
      <trkpt lat="47.77681" lon="-0.67185">
        <ele>26</ele>
        <time>2014-04-19T16:19:15Z</time>
      </trkpt>
      <trkpt lat="47.77678" lon="-0.67185">
        <ele>25.8</ele>
        <time>2014-04-19T16:19:16Z</time>
      </trkpt>
      <trkpt lat="47.7765" lon="-0.67192">
        <ele>26.2</ele>
        <time>2014-04-19T16:19:23Z</time>
      </trkpt>
      <trkpt lat="47.77613" lon="-0.67203">
        <ele>25.1</ele>
        <time>2014-04-19T16:19:30Z</time>
      </trkpt>
      <trkpt lat="47.77557" lon="-0.6724">
        <ele>24.7</ele>
        <time>2014-04-19T16:19:40Z</time>
      </trkpt>
      <trkpt lat="47.77516" lon="-0.67276">
        <ele>24</ele>
        <time>2014-04-19T16:19:48Z</time>
      </trkpt>
      <trkpt lat="47.77499" lon="-0.67296">
        <ele>24.3</ele>
        <time>2014-04-19T16:19:53Z</time>
      </trkpt>
      <trkpt lat="47.77494" lon="-0.67309">
        <ele>24.6</ele>
        <time>2014-04-19T16:19:57Z</time>
      </trkpt>
      <trkpt lat="47.77488" lon="-0.67327">
        <ele>24.8</ele>
        <time>2014-04-19T16:21:16Z</time>
      </trkpt>
      <trkpt lat="47.77486" lon="-0.67326">
        <ele>24.7</ele>
        <time>2014-04-19T16:21:24Z</time>
      </trkpt>
      <trkpt lat="47.77474" lon="-0.67321">
        <ele>24.2</ele>
        <time>2014-04-19T16:21:27Z</time>
      </trkpt>
      <trkpt lat="47.77451" lon="-0.6733">
        <ele>24.1</ele>
        <time>2014-04-19T16:21:32Z</time>
      </trkpt>
      <trkpt lat="47.77422" lon="-0.67364">
        <ele>24.3</ele>
        <time>2014-04-19T16:21:39Z</time>
      </trkpt>
      <trkpt lat="47.77381" lon="-0.67405">
        <ele>24.3</ele>
        <time>2014-04-19T16:21:48Z</time>
      </trkpt>
      <trkpt lat="47.7735" lon="-0.67435">
        <ele>24.3</ele>
        <time>2014-04-19T16:21:55Z</time>
      </trkpt>
      <trkpt lat="47.77322" lon="-0.67464">
        <ele>24.3</ele>
        <time>2014-04-19T16:22:01Z</time>
      </trkpt>
      <trkpt lat="47.77295" lon="-0.6749">
        <ele>24.3</ele>
        <time>2014-04-19T16:22:07Z</time>
      </trkpt>
      <trkpt lat="47.77263" lon="-0.67526">
        <ele>23.9</ele>
        <time>2014-04-19T16:22:14Z</time>
      </trkpt>
      <trkpt lat="47.77228" lon="-0.67574">
        <ele>24.5</ele>
        <time>2014-04-19T16:22:22Z</time>
      </trkpt>
      <trkpt lat="47.77195" lon="-0.67627">
        <ele>24.1</ele>
        <time>2014-04-19T16:22:30Z</time>
      </trkpt>
      <trkpt lat="47.77169" lon="-0.67679">
        <ele>24.5</ele>
        <time>2014-04-19T16:22:37Z</time>
      </trkpt>
      <trkpt lat="47.77143" lon="-0.67745">
        <ele>24.7</ele>
        <time>2014-04-19T16:22:45Z</time>
      </trkpt>
      <trkpt lat="47.77111" lon="-0.67811">
        <ele>24</ele>
        <time>2014-04-19T16:22:53Z</time>
      </trkpt>
      <trkpt lat="47.77086" lon="-0.6784">
        <ele>24.2</ele>
        <time>2014-04-19T16:22:58Z</time>
      </trkpt>
      <trkpt lat="47.77049" lon="-0.67875">
        <ele>24.3</ele>
        <time>2014-04-19T16:23:05Z</time>
      </trkpt>
      <trkpt lat="47.77016" lon="-0.67914">
        <ele>24.1</ele>
        <time>2014-04-19T16:23:12Z</time>
      </trkpt>
      <trkpt lat="47.76976" lon="-0.67972">
        <ele>24</ele>
        <time>2014-04-19T16:23:21Z</time>
      </trkpt>
      <trkpt lat="47.76931" lon="-0.68039">
        <ele>23.9</ele>
        <time>2014-04-19T16:23:31Z</time>
      </trkpt>
      <trkpt lat="47.76892" lon="-0.6809">
        <ele>23.7</ele>
        <time>2014-04-19T16:23:39Z</time>
      </trkpt>
      <trkpt lat="47.76848" lon="-0.68131">
        <ele>24.9</ele>
        <time>2014-04-19T16:23:47Z</time>
      </trkpt>
      <trkpt lat="47.76798" lon="-0.6816">
        <ele>25.1</ele>
        <time>2014-04-19T16:23:56Z</time>
      </trkpt>
      <trkpt lat="47.76744" lon="-0.68194">
        <ele>25.5</ele>
        <time>2014-04-19T16:24:06Z</time>
      </trkpt>
      <trkpt lat="47.767" lon="-0.68218">
        <ele>24.9</ele>
        <time>2014-04-19T16:24:15Z</time>
      </trkpt>
      <trkpt lat="47.7666" lon="-0.68244">
        <ele>24.5</ele>
        <time>2014-04-19T16:24:23Z</time>
      </trkpt>
      <trkpt lat="47.76631" lon="-0.68257">
        <ele>24.8</ele>
        <time>2014-04-19T16:24:28Z</time>
      </trkpt>
      <trkpt lat="47.76588" lon="-0.68268">
        <ele>24.9</ele>
        <time>2014-04-19T16:24:35Z</time>
      </trkpt>
      <trkpt lat="47.7655" lon="-0.68272">
        <ele>25.5</ele>
        <time>2014-04-19T16:24:42Z</time>
      </trkpt>
      <trkpt lat="47.76536" lon="-0.6827">
        <ele>25.7</ele>
        <time>2014-04-19T16:24:45Z</time>
      </trkpt>
      <trkpt lat="47.76522" lon="-0.68269">
        <ele>26.1</ele>
        <time>2014-04-19T16:24:48Z</time>
      </trkpt>
      <trkpt lat="47.76494" lon="-0.68257">
        <ele>26.1</ele>
        <time>2014-04-19T16:24:55Z</time>
      </trkpt>
      <trkpt lat="47.76469" lon="-0.6824">
        <ele>25.5</ele>
        <time>2014-04-19T16:25:01Z</time>
      </trkpt>
      <trkpt lat="47.76449" lon="-0.68232">
        <ele>27.2</ele>
        <time>2014-04-19T16:25:05Z</time>
      </trkpt>
      <trkpt lat="47.76418" lon="-0.68194">
        <ele>24.9</ele>
        <time>2014-04-19T16:25:12Z</time>
      </trkpt>
      <trkpt lat="47.76401" lon="-0.68168">
        <ele>25.6</ele>
        <time>2014-04-19T16:25:16Z</time>
      </trkpt>
      <trkpt lat="47.76372" lon="-0.68114">
        <ele>27.5</ele>
        <time>2014-04-19T16:25:24Z</time>
      </trkpt>
      <trkpt lat="47.76369" lon="-0.68106">
        <ele>27.4</ele>
        <time>2014-04-19T16:25:25Z</time>
      </trkpt>
      <trkpt lat="47.76355" lon="-0.68075">
        <ele>26.9</ele>
        <time>2014-04-19T16:25:30Z</time>
      </trkpt>
      <trkpt lat="47.76337" lon="-0.68029">
        <ele>26.6</ele>
        <time>2014-04-19T16:25:36Z</time>
      </trkpt>
      <trkpt lat="47.76317" lon="-0.67973">
        <ele>27.8</ele>
        <time>2014-04-19T16:25:43Z</time>
      </trkpt>
      <trkpt lat="47.763" lon="-0.6792">
        <ele>26.3</ele>
        <time>2014-04-19T16:25:49Z</time>
      </trkpt>
      <trkpt lat="47.7629" lon="-0.67865">
        <ele>29.5</ele>
        <time>2014-04-19T16:25:55Z</time>
      </trkpt>
      <trkpt lat="47.76283" lon="-0.67819">
        <ele>28.7</ele>
        <time>2014-04-19T16:26:00Z</time>
      </trkpt>
      <trkpt lat="47.7627" lon="-0.67753">
        <ele>27.8</ele>
        <time>2014-04-19T16:26:07Z</time>
      </trkpt>
      <trkpt lat="47.76263" lon="-0.67708">
        <ele>29.3</ele>
        <time>2014-04-19T16:26:12Z</time>
      </trkpt>
      <trkpt lat="47.76262" lon="-0.67698">
        <ele>29.4</ele>
        <time>2014-04-19T16:26:13Z</time>
      </trkpt>
      <trkpt lat="47.76259" lon="-0.67644">
        <ele>29.2</ele>
        <time>2014-04-19T16:26:19Z</time>
      </trkpt>
      <trkpt lat="47.7626" lon="-0.67592">
        <ele>29.5</ele>
        <time>2014-04-19T16:26:25Z</time>
      </trkpt>
      <trkpt lat="47.76265" lon="-0.67537">
        <ele>29.2</ele>
        <time>2014-04-19T16:26:31Z</time>
      </trkpt>
      <trkpt lat="47.76269" lon="-0.6751">
        <ele>28.6</ele>
        <time>2014-04-19T16:26:34Z</time>
      </trkpt>
      <trkpt lat="47.76278" lon="-0.67467">
        <ele>28</ele>
        <time>2014-04-19T16:26:39Z</time>
      </trkpt>
      <trkpt lat="47.76288" lon="-0.6744">
        <ele>29.7</ele>
        <time>2014-04-19T16:26:43Z</time>
      </trkpt>
      <trkpt lat="47.76298" lon="-0.67416">
        <ele>28.8</ele>
        <time>2014-04-19T16:26:47Z</time>
      </trkpt>
      <trkpt lat="47.76311" lon="-0.67392">
        <ele>29.6</ele>
        <time>2014-04-19T16:26:51Z</time>
      </trkpt>
      <trkpt lat="47.76323" lon="-0.6738">
        <ele>29.7</ele>
        <time>2014-04-19T16:26:54Z</time>
      </trkpt>
      <trkpt lat="47.76335" lon="-0.67363">
        <ele>28.4</ele>
        <time>2014-04-19T16:26:58Z</time>
      </trkpt>
      <trkpt lat="47.76342" lon="-0.67342">
        <ele>29.3</ele>
        <time>2014-04-19T16:27:02Z</time>
      </trkpt>
      <trkpt lat="47.76344" lon="-0.67285">
        <ele>29.8</ele>
        <time>2014-04-19T16:27:10Z</time>
      </trkpt>
      <trkpt lat="47.7634" lon="-0.67243">
        <ele>30.1</ele>
        <time>2014-04-19T16:27:16Z</time>
      </trkpt>
      <trkpt lat="47.76414" lon="-0.67171">
        <ele>23.9</ele>
        <time>2014-04-19T16:27:22Z</time>
      </trkpt>
      <trkpt lat="47.76423" lon="-0.67104">
        <ele>23.8</ele>
        <time>2014-04-19T16:27:29Z</time>
      </trkpt>
      <trkpt lat="47.76431" lon="-0.67037">
        <ele>23.9</ele>
        <time>2014-04-19T16:27:36Z</time>
      </trkpt>
      <trkpt lat="47.76447" lon="-0.66965">
        <ele>23.3</ele>
        <time>2014-04-19T16:27:44Z</time>
      </trkpt>
      <trkpt lat="47.76456" lon="-0.66888">
        <ele>23.6</ele>
        <time>2014-04-19T16:27:52Z</time>
      </trkpt>
      <trkpt lat="47.76459" lon="-0.66791">
        <ele>23</ele>
        <time>2014-04-19T16:27:58Z</time>
      </trkpt>
      <trkpt lat="47.76459" lon="-0.66791">
        <ele>23</ele>
        <time>2014-04-19T16:28:00Z</time>
      </trkpt>
      <trkpt lat="47.76461" lon="-0.66779">
        <ele>23</ele>
        <time>2014-04-19T16:28:05Z</time>
      </trkpt>
      <trkpt lat="47.76466" lon="-0.66751">
        <ele>24.2</ele>
        <time>2014-04-19T16:28:09Z</time>
      </trkpt>
      <trkpt lat="47.76478" lon="-0.66713">
        <ele>23.8</ele>
        <time>2014-04-19T16:28:15Z</time>
      </trkpt>
      <trkpt lat="47.76483" lon="-0.66701">
        <ele>23.6</ele>
        <time>2014-04-19T16:28:17Z</time>
      </trkpt>
      <trkpt lat="47.76499" lon="-0.66669">
        <ele>24</ele>
        <time>2014-04-19T16:28:24Z</time>
      </trkpt>
      <trkpt lat="47.76498" lon="-0.66636">
        <ele>24.1</ele>
        <time>2014-04-19T16:28:29Z</time>
      </trkpt>
      <trkpt lat="47.76507" lon="-0.6661">
        <ele>23.8</ele>
        <time>2014-04-19T16:28:33Z</time>
      </trkpt>
      <trkpt lat="47.7652" lon="-0.66583">
        <ele>24</ele>
        <time>2014-04-19T16:28:37Z</time>
      </trkpt>
      <trkpt lat="47.76534" lon="-0.66493">
        <ele>23.8</ele>
        <time>2014-04-19T16:28:47Z</time>
      </trkpt>
      <trkpt lat="47.7654" lon="-0.66423">
        <ele>23.6</ele>
        <time>2014-04-19T16:28:55Z</time>
      </trkpt>
      <trkpt lat="47.76541" lon="-0.66352">
        <ele>23.5</ele>
        <time>2014-04-19T16:29:03Z</time>
      </trkpt>
      <trkpt lat="47.7654" lon="-0.66344">
        <ele>23.5</ele>
        <time>2014-04-19T16:29:04Z</time>
      </trkpt>
      <trkpt lat="47.76533" lon="-0.66262">
        <ele>23.8</ele>
        <time>2014-04-19T16:29:14Z</time>
      </trkpt>
      <trkpt lat="47.7652" lon="-0.66192">
        <ele>23.9</ele>
        <time>2014-04-19T16:29:23Z</time>
      </trkpt>
      <trkpt lat="47.76513" lon="-0.66171">
        <ele>23.6</ele>
        <time>2014-04-19T16:29:26Z</time>
      </trkpt>
      <trkpt lat="47.76504" lon="-0.66152">
        <ele>23.8</ele>
        <time>2014-04-19T16:29:29Z</time>
      </trkpt>
      <trkpt lat="47.76495" lon="-0.66104">
        <ele>23.8</ele>
        <time>2014-04-19T16:29:37Z</time>
      </trkpt>
      <trkpt lat="47.76487" lon="-0.66076">
        <ele>23.5</ele>
        <time>2014-04-19T16:29:42Z</time>
      </trkpt>
      <trkpt lat="47.76481" lon="-0.66031">
        <ele>23.7</ele>
        <time>2014-04-19T16:29:49Z</time>
      </trkpt>
      <trkpt lat="47.7647" lon="-0.65982">
        <ele>24</ele>
        <time>2014-04-19T16:29:56Z</time>
      </trkpt>
      <trkpt lat="47.76455" lon="-0.65911">
        <ele>23.6</ele>
        <time>2014-04-19T16:30:05Z</time>
      </trkpt>
      <trkpt lat="47.76444" lon="-0.65875">
        <ele>24</ele>
        <time>2014-04-19T16:30:10Z</time>
      </trkpt>
      <trkpt lat="47.76431" lon="-0.65823">
        <ele>23.5</ele>
        <time>2014-04-19T16:30:17Z</time>
      </trkpt>
      <trkpt lat="47.76429" lon="-0.65817">
        <ele>23.6</ele>
        <time>2014-04-19T16:30:18Z</time>
      </trkpt>
      <trkpt lat="47.76406" lon="-0.65771">
        <ele>23.9</ele>
        <time>2014-04-19T16:30:26Z</time>
      </trkpt>
      <trkpt lat="47.76382" lon="-0.65734">
        <ele>23.6</ele>
        <time>2014-04-19T16:30:32Z</time>
      </trkpt>
      <trkpt lat="47.7634" lon="-0.65685">
        <ele>23.5</ele>
        <time>2014-04-19T16:30:41Z</time>
      </trkpt>
      <trkpt lat="47.76286" lon="-0.65624">
        <ele>23.8</ele>
        <time>2014-04-19T16:30:52Z</time>
      </trkpt>
      <trkpt lat="47.76241" lon="-0.65573">
        <ele>23.8</ele>
        <time>2014-04-19T16:31:01Z</time>
      </trkpt>
      <trkpt lat="47.76203" lon="-0.65533">
        <ele>23.7</ele>
        <time>2014-04-19T16:31:09Z</time>
      </trkpt>
      <trkpt lat="47.76163" lon="-0.65487">
        <ele>23.6</ele>
        <time>2014-04-19T16:31:18Z</time>
      </trkpt>
      <trkpt lat="47.76137" lon="-0.65463">
        <ele>23.7</ele>
        <time>2014-04-19T16:31:24Z</time>
      </trkpt>
      <trkpt lat="47.76105" lon="-0.65439">
        <ele>24.5</ele>
        <time>2014-04-19T16:31:32Z</time>
      </trkpt>
      <trkpt lat="47.76079" lon="-0.65421">
        <ele>24.9</ele>
        <time>2014-04-19T16:31:38Z</time>
      </trkpt>
      <trkpt lat="47.76064" lon="-0.6541">
        <ele>24.8</ele>
        <time>2014-04-19T16:31:42Z</time>
      </trkpt>
      <trkpt lat="47.76037" lon="-0.6539">
        <ele>24</ele>
        <time>2014-04-19T16:31:49Z</time>
      </trkpt>
      <trkpt lat="47.76003" lon="-0.65364">
        <ele>23.7</ele>
        <time>2014-04-19T16:31:57Z</time>
      </trkpt>
      <trkpt lat="47.75968" lon="-0.65344">
        <ele>22.5</ele>
        <time>2014-04-19T16:32:04Z</time>
      </trkpt>
      <trkpt lat="47.75928" lon="-0.65335">
        <ele>23.6</ele>
        <time>2014-04-19T16:32:12Z</time>
      </trkpt>
      <trkpt lat="47.75892" lon="-0.65326">
        <ele>23.5</ele>
        <time>2014-04-19T16:32:20Z</time>
      </trkpt>
      <trkpt lat="47.75861" lon="-0.65319">
        <ele>22.5</ele>
        <time>2014-04-19T16:32:26Z</time>
      </trkpt>
      <trkpt lat="47.75834" lon="-0.65311">
        <ele>23</ele>
        <time>2014-04-19T16:32:31Z</time>
      </trkpt>
      <trkpt lat="47.75796" lon="-0.65299">
        <ele>23</ele>
        <time>2014-04-19T16:32:38Z</time>
      </trkpt>
      <trkpt lat="47.75754" lon="-0.65281">
        <ele>23</ele>
        <time>2014-04-19T16:32:45Z</time>
      </trkpt>
      <trkpt lat="47.75713" lon="-0.65262">
        <ele>23.1</ele>
        <time>2014-04-19T16:32:52Z</time>
      </trkpt>
      <trkpt lat="47.75653" lon="-0.65234">
        <ele>23.4</ele>
        <time>2014-04-19T16:33:02Z</time>
      </trkpt>
      <trkpt lat="47.75614" lon="-0.65216">
        <ele>23.4</ele>
        <time>2014-04-19T16:33:09Z</time>
      </trkpt>
      <trkpt lat="47.75569" lon="-0.65195">
        <ele>23</ele>
        <time>2014-04-19T16:33:17Z</time>
      </trkpt>
      <trkpt lat="47.75506" lon="-0.6517">
        <ele>23.6</ele>
        <time>2014-04-19T16:33:27Z</time>
      </trkpt>
      <trkpt lat="47.75464" lon="-0.65155">
        <ele>22.8</ele>
        <time>2014-04-19T16:33:34Z</time>
      </trkpt>
      <trkpt lat="47.75414" lon="-0.65147">
        <ele>23</ele>
        <time>2014-04-19T16:33:42Z</time>
      </trkpt>
      <trkpt lat="47.75373" lon="-0.65142">
        <ele>23.4</ele>
        <time>2014-04-19T16:33:49Z</time>
      </trkpt>
      <trkpt lat="47.75333" lon="-0.65136">
        <ele>23.8</ele>
        <time>2014-04-19T16:33:56Z</time>
      </trkpt>
      <trkpt lat="47.75304" lon="-0.6513">
        <ele>24.1</ele>
        <time>2014-04-19T16:34:01Z</time>
      </trkpt>
      <trkpt lat="47.75286" lon="-0.65126">
        <ele>23.6</ele>
        <time>2014-04-19T16:34:04Z</time>
      </trkpt>
      <trkpt lat="47.75264" lon="-0.6512">
        <ele>23.3</ele>
        <time>2014-04-19T16:34:08Z</time>
      </trkpt>
      <trkpt lat="47.75224" lon="-0.65108">
        <ele>23.7</ele>
        <time>2014-04-19T16:34:15Z</time>
      </trkpt>
      <trkpt lat="47.7519" lon="-0.6509">
        <ele>25.2</ele>
        <time>2014-04-19T16:34:21Z</time>
      </trkpt>
      <trkpt lat="47.75152" lon="-0.65062">
        <ele>26.4</ele>
        <time>2014-04-19T16:34:28Z</time>
      </trkpt>
      <trkpt lat="47.75119" lon="-0.65028">
        <ele>24.2</ele>
        <time>2014-04-19T16:34:35Z</time>
      </trkpt>
      <trkpt lat="47.75105" lon="-0.65012">
        <ele>26.2</ele>
        <time>2014-04-19T16:34:38Z</time>
      </trkpt>
      <trkpt lat="47.75084" lon="-0.64975">
        <ele>24</ele>
        <time>2014-04-19T16:34:44Z</time>
      </trkpt>
      <trkpt lat="47.75072" lon="-0.64946">
        <ele>28.8</ele>
        <time>2014-04-19T16:34:48Z</time>
      </trkpt>
      <trkpt lat="47.75063" lon="-0.6492">
        <ele>25.9</ele>
        <time>2014-04-19T16:34:52Z</time>
      </trkpt>
      <trkpt lat="47.75052" lon="-0.64881">
        <ele>25.2</ele>
        <time>2014-04-19T16:34:58Z</time>
      </trkpt>
      <trkpt lat="47.75043" lon="-0.64847">
        <ele>26.2</ele>
        <time>2014-04-19T16:35:03Z</time>
      </trkpt>
      <trkpt lat="47.75036" lon="-0.64814">
        <ele>26.2</ele>
        <time>2014-04-19T16:35:08Z</time>
      </trkpt>
      <trkpt lat="47.75023" lon="-0.6476">
        <ele>27.4</ele>
        <time>2014-04-19T16:35:16Z</time>
      </trkpt>
      <trkpt lat="47.75014" lon="-0.64715">
        <ele>30.8</ele>
        <time>2014-04-19T16:35:23Z</time>
      </trkpt>
      <trkpt lat="47.75007" lon="-0.64674">
        <ele>30.5</ele>
        <time>2014-04-19T16:35:30Z</time>
      </trkpt>
      <trkpt lat="47.75002" lon="-0.64646">
        <ele>27.1</ele>
        <time>2014-04-19T16:35:35Z</time>
      </trkpt>
      <trkpt lat="47.74997" lon="-0.64627">
        <ele>26.6</ele>
        <time>2014-04-19T16:35:39Z</time>
      </trkpt>
      <trkpt lat="47.74987" lon="-0.64583">
        <ele>29.2</ele>
        <time>2014-04-19T16:35:46Z</time>
      </trkpt>
      <trkpt lat="47.74978" lon="-0.64545">
        <ele>24.6</ele>
        <time>2014-04-19T16:35:52Z</time>
      </trkpt>
      <trkpt lat="47.74966" lon="-0.64503">
        <ele>25</ele>
        <time>2014-04-19T16:35:59Z</time>
      </trkpt>
      <trkpt lat="47.74949" lon="-0.64456">
        <ele>23.2</ele>
        <time>2014-04-19T16:36:06Z</time>
      </trkpt>
      <trkpt lat="47.74933" lon="-0.64414">
        <ele>23.3</ele>
        <time>2014-04-19T16:36:12Z</time>
      </trkpt>
      <trkpt lat="47.74922" lon="-0.64374">
        <ele>22.8</ele>
        <time>2014-04-19T16:36:18Z</time>
      </trkpt>
      <trkpt lat="47.74911" lon="-0.64343">
        <ele>22.7</ele>
        <time>2014-04-19T16:36:23Z</time>
      </trkpt>
      <trkpt lat="47.74895" lon="-0.64311">
        <ele>22.9</ele>
        <time>2014-04-19T16:36:29Z</time>
      </trkpt>
      <trkpt lat="47.74883" lon="-0.64291">
        <ele>23</ele>
        <time>2014-04-19T16:36:34Z</time>
      </trkpt>
      <trkpt lat="47.7488" lon="-0.64288">
        <ele>23.2</ele>
        <time>2014-04-19T16:36:39Z</time>
      </trkpt>
      <trkpt lat="47.74876" lon="-0.64281">
        <ele>23.4</ele>
        <time>2014-04-19T16:40:17Z</time>
      </trkpt>
      <trkpt lat="47.74867" lon="-0.64263">
        <ele>24</ele>
        <time>2014-04-19T16:40:22Z</time>
      </trkpt>
      <trkpt lat="47.74849" lon="-0.64226">
        <ele>24</ele>
        <time>2014-04-19T16:40:30Z</time>
      </trkpt>
      <trkpt lat="47.74843" lon="-0.64208">
        <ele>23.6</ele>
        <time>2014-04-19T16:40:35Z</time>
      </trkpt>
      <trkpt lat="47.74836" lon="-0.64193">
        <ele>22.8</ele>
        <time>2014-04-19T16:40:39Z</time>
      </trkpt>
      <trkpt lat="47.74826" lon="-0.64184">
        <ele>23</ele>
        <time>2014-04-19T16:40:42Z</time>
      </trkpt>
      <trkpt lat="47.74805" lon="-0.64144">
        <ele>23</ele>
        <time>2014-04-19T16:40:50Z</time>
      </trkpt>
      <trkpt lat="47.74791" lon="-0.64117">
        <ele>23</ele>
        <time>2014-04-19T16:40:56Z</time>
      </trkpt>
      <trkpt lat="47.74788" lon="-0.64111">
        <ele>23.3</ele>
        <time>2014-04-19T16:40:59Z</time>
      </trkpt>
      <trkpt lat="47.74788" lon="-0.64111">
        <ele>23.3</ele>
        <time>2014-04-19T16:41:18Z</time>
      </trkpt>
      <trkpt lat="47.74781" lon="-0.64097">
        <ele>23.3</ele>
        <time>2014-04-19T16:41:24Z</time>
      </trkpt>
      <trkpt lat="47.74779" lon="-0.64093">
        <ele>23.3</ele>
        <time>2014-04-19T16:41:25Z</time>
      </trkpt>
      <trkpt lat="47.74769" lon="-0.64075">
        <ele>22.8</ele>
        <time>2014-04-19T16:41:29Z</time>
      </trkpt>
      <trkpt lat="47.74749" lon="-0.64039">
        <ele>23</ele>
        <time>2014-04-19T16:41:36Z</time>
      </trkpt>
      <trkpt lat="47.74742" lon="-0.64028">
        <ele>23</ele>
        <time>2014-04-19T16:41:38Z</time>
      </trkpt>
      <trkpt lat="47.7471" lon="-0.6399">
        <ele>22.8</ele>
        <time>2014-04-19T16:41:46Z</time>
      </trkpt>
      <trkpt lat="47.74701" lon="-0.63983">
        <ele>22.8</ele>
        <time>2014-04-19T16:41:48Z</time>
      </trkpt>
      <trkpt lat="47.74672" lon="-0.63968">
        <ele>22.8</ele>
        <time>2014-04-19T16:41:54Z</time>
      </trkpt>
      <trkpt lat="47.74638" lon="-0.63968">
        <ele>22.8</ele>
        <time>2014-04-19T16:42:00Z</time>
      </trkpt>
      <trkpt lat="47.74595" lon="-0.63976">
        <ele>23</ele>
        <time>2014-04-19T16:42:07Z</time>
      </trkpt>
      <trkpt lat="47.74545" lon="-0.63997">
        <ele>22.9</ele>
        <time>2014-04-19T16:42:15Z</time>
      </trkpt>
      <trkpt lat="47.74505" lon="-0.63998">
        <ele>22.9</ele>
        <time>2014-04-19T16:42:21Z</time>
      </trkpt>
      <trkpt lat="47.74457" lon="-0.64">
        <ele>23</ele>
        <time>2014-04-19T16:42:28Z</time>
      </trkpt>
      <trkpt lat="47.74408" lon="-0.64004">
        <ele>22.7</ele>
        <time>2014-04-19T16:42:35Z</time>
      </trkpt>
      <trkpt lat="47.74353" lon="-0.64014">
        <ele>22.5</ele>
        <time>2014-04-19T16:42:43Z</time>
      </trkpt>
      <trkpt lat="47.74314" lon="-0.64023">
        <ele>22.8</ele>
        <time>2014-04-19T16:42:49Z</time>
      </trkpt>
      <trkpt lat="47.74263" lon="-0.64034">
        <ele>22.6</ele>
        <time>2014-04-19T16:42:57Z</time>
      </trkpt>
      <trkpt lat="47.74229" lon="-0.64043">
        <ele>22.5</ele>
        <time>2014-04-19T16:43:03Z</time>
      </trkpt>
      <trkpt lat="47.74189" lon="-0.64057">
        <ele>23</ele>
        <time>2014-04-19T16:43:10Z</time>
      </trkpt>
      <trkpt lat="47.74146" lon="-0.64076">
        <ele>22.8</ele>
        <time>2014-04-19T16:43:17Z</time>
      </trkpt>
      <trkpt lat="47.74119" lon="-0.64092">
        <ele>23</ele>
        <time>2014-04-19T16:43:22Z</time>
      </trkpt>
      <trkpt lat="47.74094" lon="-0.6412">
        <ele>22.6</ele>
        <time>2014-04-19T16:43:27Z</time>
      </trkpt>
      <trkpt lat="47.74055" lon="-0.64168">
        <ele>23</ele>
        <time>2014-04-19T16:43:34Z</time>
      </trkpt>
      <trkpt lat="47.74006" lon="-0.64239">
        <ele>22.7</ele>
        <time>2014-04-19T16:43:44Z</time>
      </trkpt>
      <trkpt lat="47.73961" lon="-0.64327">
        <ele>22.9</ele>
        <time>2014-04-19T16:43:55Z</time>
      </trkpt>
      <trkpt lat="47.73918" lon="-0.64409">
        <ele>22.7</ele>
        <time>2014-04-19T16:44:05Z</time>
      </trkpt>
      <trkpt lat="47.7388" lon="-0.64471">
        <ele>22.7</ele>
        <time>2014-04-19T16:44:13Z</time>
      </trkpt>
      <trkpt lat="47.73842" lon="-0.64516">
        <ele>22.7</ele>
        <time>2014-04-19T16:44:20Z</time>
      </trkpt>
      <trkpt lat="47.7381" lon="-0.64557">
        <ele>22</ele>
        <time>2014-04-19T16:44:26Z</time>
      </trkpt>
      <trkpt lat="47.7378" lon="-0.64598">
        <ele>22.5</ele>
        <time>2014-04-19T16:44:32Z</time>
      </trkpt>
      <trkpt lat="47.73747" lon="-0.64646">
        <ele>22.7</ele>
        <time>2014-04-19T16:44:39Z</time>
      </trkpt>
      <trkpt lat="47.73719" lon="-0.64685">
        <ele>22</ele>
        <time>2014-04-19T16:44:45Z</time>
      </trkpt>
      <trkpt lat="47.7371" lon="-0.64697">
        <ele>22</ele>
        <time>2014-04-19T16:44:47Z</time>
      </trkpt>
      <trkpt lat="47.73682" lon="-0.64737">
        <ele>22.3</ele>
        <time>2014-04-19T16:44:53Z</time>
      </trkpt>
      <trkpt lat="47.73649" lon="-0.64783">
        <ele>22.5</ele>
        <time>2014-04-19T16:45:00Z</time>
      </trkpt>
      <trkpt lat="47.73619" lon="-0.64816">
        <ele>22.5</ele>
        <time>2014-04-19T16:45:06Z</time>
      </trkpt>
      <trkpt lat="47.7357" lon="-0.64862">
        <ele>22.5</ele>
        <time>2014-04-19T16:45:15Z</time>
      </trkpt>
      <trkpt lat="47.73527" lon="-0.64908">
        <ele>22.7</ele>
        <time>2014-04-19T16:45:23Z</time>
      </trkpt>
      <trkpt lat="47.73503" lon="-0.64947">
        <ele>23</ele>
        <time>2014-04-19T16:45:29Z</time>
      </trkpt>
      <trkpt lat="47.73499" lon="-0.6496">
        <ele>23</ele>
        <time>2014-04-19T16:45:31Z</time>
      </trkpt>
      <trkpt lat="47.73487" lon="-0.65018">
        <ele>22.2</ele>
        <time>2014-04-19T16:45:38Z</time>
      </trkpt>
      <trkpt lat="47.73484" lon="-0.65074">
        <ele>22</ele>
        <time>2014-04-19T16:45:45Z</time>
      </trkpt>
      <trkpt lat="47.7348" lon="-0.6513">
        <ele>22.2</ele>
        <time>2014-04-19T16:45:51Z</time>
      </trkpt>
      <trkpt lat="47.73468" lon="-0.65179">
        <ele>22.9</ele>
        <time>2014-04-19T16:45:56Z</time>
      </trkpt>
      <trkpt lat="47.73444" lon="-0.65259">
        <ele>22</ele>
        <time>2014-04-19T16:46:05Z</time>
      </trkpt>
      <trkpt lat="47.73424" lon="-0.65308">
        <ele>22.1</ele>
        <time>2014-04-19T16:46:11Z</time>
      </trkpt>
      <trkpt lat="47.734" lon="-0.65359">
        <ele>22</ele>
        <time>2014-04-19T16:46:18Z</time>
      </trkpt>
      <trkpt lat="47.73378" lon="-0.65392">
        <ele>22.7</ele>
        <time>2014-04-19T16:46:24Z</time>
      </trkpt>
      <trkpt lat="47.73377" lon="-0.65394">
        <ele>22.6</ele>
        <time>2014-04-19T16:46:25Z</time>
      </trkpt>
      <trkpt lat="47.73376" lon="-0.65397">
        <ele>22.7</ele>
        <time>2014-04-19T16:46:51Z</time>
      </trkpt>
      <trkpt lat="47.73373" lon="-0.65404">
        <ele>22.7</ele>
        <time>2014-04-19T16:46:54Z</time>
      </trkpt>
      <trkpt lat="47.73361" lon="-0.65421">
        <ele>23</ele>
        <time>2014-04-19T16:46:59Z</time>
      </trkpt>
      <trkpt lat="47.73341" lon="-0.65451">
        <ele>22.4</ele>
        <time>2014-04-19T16:47:05Z</time>
      </trkpt>
      <trkpt lat="47.73312" lon="-0.65498">
        <ele>22</ele>
        <time>2014-04-19T16:47:13Z</time>
      </trkpt>
      <trkpt lat="47.73287" lon="-0.65539">
        <ele>22.5</ele>
        <time>2014-04-19T16:47:20Z</time>
      </trkpt>
      <trkpt lat="47.73263" lon="-0.65577">
        <ele>22.5</ele>
        <time>2014-04-19T16:47:26Z</time>
      </trkpt>
      <trkpt lat="47.73235" lon="-0.65624">
        <ele>22.2</ele>
        <time>2014-04-19T16:47:33Z</time>
      </trkpt>
      <trkpt lat="47.73196" lon="-0.65684">
        <ele>22</ele>
        <time>2014-04-19T16:47:42Z</time>
      </trkpt>
      <trkpt lat="47.73168" lon="-0.65734">
        <ele>22</ele>
        <time>2014-04-19T16:47:49Z</time>
      </trkpt>
      <trkpt lat="47.7314" lon="-0.658">
        <ele>22</ele>
        <time>2014-04-19T16:47:57Z</time>
      </trkpt>
      <trkpt lat="47.73102" lon="-0.65884">
        <ele>22</ele>
        <time>2014-04-19T16:48:07Z</time>
      </trkpt>
      <trkpt lat="47.73078" lon="-0.65935">
        <ele>22</ele>
        <time>2014-04-19T16:48:14Z</time>
      </trkpt>
      <trkpt lat="47.73063" lon="-0.65974">
        <ele>22</ele>
        <time>2014-04-19T16:48:20Z</time>
      </trkpt>
      <trkpt lat="47.73047" lon="-0.66018">
        <ele>22.6</ele>
        <time>2014-04-19T16:48:26Z</time>
      </trkpt>
      <trkpt lat="47.73027" lon="-0.66076">
        <ele>22</ele>
        <time>2014-04-19T16:48:32Z</time>
      </trkpt>
      <trkpt lat="47.72994" lon="-0.66159">
        <ele>21.8</ele>
        <time>2014-04-19T16:48:41Z</time>
      </trkpt>
      <trkpt lat="47.72963" lon="-0.66246">
        <ele>21.1</ele>
        <time>2014-04-19T16:48:50Z</time>
      </trkpt>
      <trkpt lat="47.72941" lon="-0.66307">
        <ele>21.2</ele>
        <time>2014-04-19T16:48:57Z</time>
      </trkpt>
      <trkpt lat="47.72929" lon="-0.66355">
        <ele>21.6</ele>
        <time>2014-04-19T16:49:03Z</time>
      </trkpt>
      <trkpt lat="47.72915" lon="-0.66403">
        <ele>22</ele>
        <time>2014-04-19T16:49:09Z</time>
      </trkpt>
      <trkpt lat="47.72899" lon="-0.66456">
        <ele>21.8</ele>
        <time>2014-04-19T16:49:15Z</time>
      </trkpt>
      <trkpt lat="47.7288" lon="-0.66511">
        <ele>22.7</ele>
        <time>2014-04-19T16:49:22Z</time>
      </trkpt>
      <trkpt lat="47.72861" lon="-0.6654">
        <ele>22.9</ele>
        <time>2014-04-19T16:49:27Z</time>
      </trkpt>
      <trkpt lat="47.72838" lon="-0.66576">
        <ele>23.2</ele>
        <time>2014-04-19T16:49:33Z</time>
      </trkpt>
      <trkpt lat="47.7282" lon="-0.66609">
        <ele>24.8</ele>
        <time>2014-04-19T16:49:38Z</time>
      </trkpt>
      <trkpt lat="47.72803" lon="-0.66634">
        <ele>24.9</ele>
        <time>2014-04-19T16:49:42Z</time>
      </trkpt>
      <trkpt lat="47.72788" lon="-0.6665">
        <ele>25.4</ele>
        <time>2014-04-19T16:49:45Z</time>
      </trkpt>
      <trkpt lat="47.7277" lon="-0.66672">
        <ele>25.6</ele>
        <time>2014-04-19T16:49:49Z</time>
      </trkpt>
      <trkpt lat="47.72744" lon="-0.66708">
        <ele>25.1</ele>
        <time>2014-04-19T16:49:55Z</time>
      </trkpt>
      <trkpt lat="47.7274" lon="-0.66714">
        <ele>25.1</ele>
        <time>2014-04-19T16:49:56Z</time>
      </trkpt>
      <trkpt lat="47.72717" lon="-0.66741">
        <ele>24.8</ele>
        <time>2014-04-19T16:50:02Z</time>
      </trkpt>
      <trkpt lat="47.72696" lon="-0.66769">
        <ele>24.4</ele>
        <time>2014-04-19T16:50:07Z</time>
      </trkpt>
      <trkpt lat="47.72683" lon="-0.66782">
        <ele>24.5</ele>
        <time>2014-04-19T16:50:11Z</time>
      </trkpt>
      <trkpt lat="47.72675" lon="-0.6679">
        <ele>24.7</ele>
        <time>2014-04-19T16:50:14Z</time>
      </trkpt>
      <trkpt lat="47.72662" lon="-0.66806">
        <ele>24.4</ele>
        <time>2014-04-19T16:50:18Z</time>
      </trkpt>
      <trkpt lat="47.72651" lon="-0.66808">
        <ele>23.2</ele>
        <time>2014-04-19T16:50:21Z</time>
      </trkpt>
      <trkpt lat="47.7263" lon="-0.66837">
        <ele>24.5</ele>
        <time>2014-04-19T16:50:27Z</time>
      </trkpt>
      <trkpt lat="47.72603" lon="-0.66863">
        <ele>24.3</ele>
        <time>2014-04-19T16:50:33Z</time>
      </trkpt>
      <trkpt lat="47.7258" lon="-0.66883">
        <ele>24.5</ele>
        <time>2014-04-19T16:50:38Z</time>
      </trkpt>
      <trkpt lat="47.72565" lon="-0.66895">
        <ele>24.7</ele>
        <time>2014-04-19T16:50:41Z</time>
      </trkpt>
      <trkpt lat="47.72538" lon="-0.66917">
        <ele>24.6</ele>
        <time>2014-04-19T16:50:47Z</time>
      </trkpt>
      <trkpt lat="47.72506" lon="-0.66929">
        <ele>24.4</ele>
        <time>2014-04-19T16:50:54Z</time>
      </trkpt>
      <trkpt lat="47.72488" lon="-0.66934">
        <ele>24.2</ele>
        <time>2014-04-19T16:50:59Z</time>
      </trkpt>
      <trkpt lat="47.72462" lon="-0.66937">
        <ele>24.2</ele>
        <time>2014-04-19T16:51:05Z</time>
      </trkpt>
      <trkpt lat="47.72436" lon="-0.66934">
        <ele>25.2</ele>
        <time>2014-04-19T16:51:11Z</time>
      </trkpt>
      <trkpt lat="47.7241" lon="-0.66922">
        <ele>24.7</ele>
        <time>2014-04-19T16:51:17Z</time>
      </trkpt>
      <trkpt lat="47.72381" lon="-0.66903">
        <ele>26.5</ele>
        <time>2014-04-19T16:51:24Z</time>
      </trkpt>
      <trkpt lat="47.72365" lon="-0.66892">
        <ele>24.9</ele>
        <time>2014-04-19T16:51:28Z</time>
      </trkpt>
      <trkpt lat="47.72346" lon="-0.66879">
        <ele>26.2</ele>
        <time>2014-04-19T16:51:33Z</time>
      </trkpt>
      <trkpt lat="47.72311" lon="-0.66857">
        <ele>26.2</ele>
        <time>2014-04-19T16:51:41Z</time>
      </trkpt>
      <trkpt lat="47.72297" lon="-0.66849">
        <ele>25.8</ele>
        <time>2014-04-19T16:51:44Z</time>
      </trkpt>
      <trkpt lat="47.72273" lon="-0.66833">
        <ele>23.1</ele>
        <time>2014-04-19T16:51:50Z</time>
      </trkpt>
      <trkpt lat="47.72245" lon="-0.66814">
        <ele>22.5</ele>
        <time>2014-04-19T16:51:58Z</time>
      </trkpt>
      <trkpt lat="47.72214" lon="-0.66794">
        <ele>22.5</ele>
        <time>2014-04-19T16:52:05Z</time>
      </trkpt>
      <trkpt lat="47.72178" lon="-0.66774">
        <ele>22.9</ele>
        <time>2014-04-19T16:52:12Z</time>
      </trkpt>
      <trkpt lat="47.72137" lon="-0.66756">
        <ele>22.9</ele>
        <time>2014-04-19T16:52:19Z</time>
      </trkpt>
      <trkpt lat="47.72089" lon="-0.66733">
        <ele>24</ele>
        <time>2014-04-19T16:52:27Z</time>
      </trkpt>
      <trkpt lat="47.72056" lon="-0.66717">
        <ele>24.2</ele>
        <time>2014-04-19T16:52:33Z</time>
      </trkpt>
      <trkpt lat="47.72021" lon="-0.66693">
        <ele>24.7</ele>
        <time>2014-04-19T16:52:40Z</time>
      </trkpt>
      <trkpt lat="47.71991" lon="-0.66671">
        <ele>23.8</ele>
        <time>2014-04-19T16:52:46Z</time>
      </trkpt>
      <trkpt lat="47.71981" lon="-0.66665">
        <ele>22.9</ele>
        <time>2014-04-19T16:52:48Z</time>
      </trkpt>
      <trkpt lat="47.71945" lon="-0.66659">
        <ele>22.4</ele>
        <time>2014-04-19T16:52:56Z</time>
      </trkpt>
      <trkpt lat="47.71934" lon="-0.66666">
        <ele>22.2</ele>
        <time>2014-04-19T16:53:01Z</time>
      </trkpt>
      <trkpt lat="47.71922" lon="-0.6671">
        <ele>24.8</ele>
        <time>2014-04-19T16:53:06Z</time>
      </trkpt>
      <trkpt lat="47.71888" lon="-0.66637">
        <ele>21.9</ele>
        <time>2014-04-19T16:53:12Z</time>
      </trkpt>
      <trkpt lat="47.71876" lon="-0.66631">
        <ele>21.7</ele>
        <time>2014-04-19T16:53:17Z</time>
      </trkpt>
      <trkpt lat="47.71873" lon="-0.66629">
        <ele>21.6</ele>
        <time>2014-04-19T16:53:22Z</time>
      </trkpt>
      <trkpt lat="47.71873" lon="-0.66629">
        <ele>21.6</ele>
        <time>2014-04-19T16:53:54Z</time>
      </trkpt>
      <trkpt lat="47.71861" lon="-0.66622">
        <ele>21.4</ele>
        <time>2014-04-19T16:54:00Z</time>
      </trkpt>
      <trkpt lat="47.71855" lon="-0.6662">
        <ele>21.6</ele>
        <time>2014-04-19T16:54:02Z</time>
      </trkpt>
      <trkpt lat="47.71836" lon="-0.66614">
        <ele>22.1</ele>
        <time>2014-04-19T16:54:07Z</time>
      </trkpt>
      <trkpt lat="47.71828" lon="-0.66611">
        <ele>22</ele>
        <time>2014-04-19T16:54:09Z</time>
      </trkpt>
      <trkpt lat="47.71796" lon="-0.666">
        <ele>21.8</ele>
        <time>2014-04-19T16:54:17Z</time>
      </trkpt>
      <trkpt lat="47.71787" lon="-0.66596">
        <ele>21.8</ele>
        <time>2014-04-19T16:54:22Z</time>
      </trkpt>
      <trkpt lat="47.71787" lon="-0.66596">
        <ele>21.8</ele>
        <time>2014-04-19T16:54:24Z</time>
      </trkpt>
      <trkpt lat="47.71739" lon="-0.66574">
        <ele>21.7</ele>
        <time>2014-04-19T16:54:30Z</time>
      </trkpt>
      <trkpt lat="47.71696" lon="-0.66559">
        <ele>21.1</ele>
        <time>2014-04-19T16:54:38Z</time>
      </trkpt>
      <trkpt lat="47.71651" lon="-0.66544">
        <ele>21.6</ele>
        <time>2014-04-19T16:54:46Z</time>
      </trkpt>
      <trkpt lat="47.71622" lon="-0.66533">
        <ele>21.2</ele>
        <time>2014-04-19T16:54:52Z</time>
      </trkpt>
      <trkpt lat="47.71586" lon="-0.66521">
        <ele>21.7</ele>
        <time>2014-04-19T16:54:58Z</time>
      </trkpt>
      <trkpt lat="47.71542" lon="-0.66508">
        <ele>21.3</ele>
        <time>2014-04-19T16:55:06Z</time>
      </trkpt>
      <trkpt lat="47.71497" lon="-0.66493">
        <ele>21.7</ele>
        <time>2014-04-19T16:55:14Z</time>
      </trkpt>
      <trkpt lat="47.71451" lon="-0.66477">
        <ele>21.3</ele>
        <time>2014-04-19T16:55:22Z</time>
      </trkpt>
      <trkpt lat="47.71414" lon="-0.66469">
        <ele>21.1</ele>
        <time>2014-04-19T16:55:29Z</time>
      </trkpt>
      <trkpt lat="47.7136" lon="-0.66461">
        <ele>21.6</ele>
        <time>2014-04-19T16:55:39Z</time>
      </trkpt>
      <trkpt lat="47.71311" lon="-0.66448">
        <ele>21.3</ele>
        <time>2014-04-19T16:55:48Z</time>
      </trkpt>
      <trkpt lat="47.71266" lon="-0.66439">
        <ele>21.8</ele>
        <time>2014-04-19T16:55:56Z</time>
      </trkpt>
      <trkpt lat="47.71214" lon="-0.66425">
        <ele>21.3</ele>
        <time>2014-04-19T16:56:05Z</time>
      </trkpt>
      <trkpt lat="47.71167" lon="-0.66408">
        <ele>21.7</ele>
        <time>2014-04-19T16:56:13Z</time>
      </trkpt>
      <trkpt lat="47.71149" lon="-0.66402">
        <ele>21.5</ele>
        <time>2014-04-19T16:56:16Z</time>
      </trkpt>
      <trkpt lat="47.71099" lon="-0.66389">
        <ele>22</ele>
        <time>2014-04-19T16:56:24Z</time>
      </trkpt>
      <trkpt lat="47.71086" lon="-0.66385">
        <ele>21.9</ele>
        <time>2014-04-19T16:56:26Z</time>
      </trkpt>
      <trkpt lat="47.71047" lon="-0.66362">
        <ele>21.4</ele>
        <time>2014-04-19T16:56:33Z</time>
      </trkpt>
      <trkpt lat="47.71014" lon="-0.66348">
        <ele>21.5</ele>
        <time>2014-04-19T16:56:39Z</time>
      </trkpt>
      <trkpt lat="47.70969" lon="-0.66329">
        <ele>21.9</ele>
        <time>2014-04-19T16:56:46Z</time>
      </trkpt>
      <trkpt lat="47.70927" lon="-0.66315">
        <ele>21.5</ele>
        <time>2014-04-19T16:56:53Z</time>
      </trkpt>
      <trkpt lat="47.70871" lon="-0.663">
        <ele>21.5</ele>
        <time>2014-04-19T16:57:02Z</time>
      </trkpt>
      <trkpt lat="47.70819" lon="-0.66287">
        <ele>21.7</ele>
        <time>2014-04-19T16:57:10Z</time>
      </trkpt>
      <trkpt lat="47.70813" lon="-0.66285">
        <ele>21.8</ele>
        <time>2014-04-19T16:57:11Z</time>
      </trkpt>
      <trkpt lat="47.70788" lon="-0.66291">
        <ele>21.7</ele>
        <time>2014-04-19T16:57:15Z</time>
      </trkpt>
      <trkpt lat="47.70772" lon="-0.66307">
        <ele>21.8</ele>
        <time>2014-04-19T16:57:18Z</time>
      </trkpt>
      <trkpt lat="47.70741" lon="-0.66349">
        <ele>21.4</ele>
        <time>2014-04-19T16:57:24Z</time>
      </trkpt>
      <trkpt lat="47.70716" lon="-0.66383">
        <ele>21</ele>
        <time>2014-04-19T16:57:29Z</time>
      </trkpt>
      <trkpt lat="47.7067" lon="-0.66424">
        <ele>21</ele>
        <time>2014-04-19T16:57:37Z</time>
      </trkpt>
      <trkpt lat="47.70639" lon="-0.66451">
        <ele>21.2</ele>
        <time>2014-04-19T16:57:43Z</time>
      </trkpt>
      <trkpt lat="47.70607" lon="-0.66479">
        <ele>21.1</ele>
        <time>2014-04-19T16:57:50Z</time>
      </trkpt>
      <trkpt lat="47.7058" lon="-0.66501">
        <ele>20.9</ele>
        <time>2014-04-19T16:57:55Z</time>
      </trkpt>
      <trkpt lat="47.70539" lon="-0.66534">
        <ele>21.2</ele>
        <time>2014-04-19T16:58:02Z</time>
      </trkpt>
      <trkpt lat="47.70508" lon="-0.66563">
        <ele>21.3</ele>
        <time>2014-04-19T16:58:08Z</time>
      </trkpt>
      <trkpt lat="47.70493" lon="-0.66571">
        <ele>21</ele>
        <time>2014-04-19T16:58:11Z</time>
      </trkpt>
      <trkpt lat="47.70461" lon="-0.66593">
        <ele>20.7</ele>
        <time>2014-04-19T16:58:17Z</time>
      </trkpt>
      <trkpt lat="47.70409" lon="-0.66636">
        <ele>20.7</ele>
        <time>2014-04-19T16:58:27Z</time>
      </trkpt>
      <trkpt lat="47.70363" lon="-0.66696">
        <ele>20.2</ele>
        <time>2014-04-19T16:58:37Z</time>
      </trkpt>
      <trkpt lat="47.70346" lon="-0.66726">
        <ele>21.1</ele>
        <time>2014-04-19T16:58:42Z</time>
      </trkpt>
      <trkpt lat="47.70337" lon="-0.66748">
        <ele>21.9</ele>
        <time>2014-04-19T16:58:46Z</time>
      </trkpt>
      <trkpt lat="47.70313" lon="-0.66783">
        <ele>21.7</ele>
        <time>2014-04-19T16:58:52Z</time>
      </trkpt>
      <trkpt lat="47.70287" lon="-0.6682">
        <ele>22.4</ele>
        <time>2014-04-19T16:58:58Z</time>
      </trkpt>
      <trkpt lat="47.7026" lon="-0.66854">
        <ele>23.4</ele>
        <time>2014-04-19T16:59:04Z</time>
      </trkpt>
      <trkpt lat="47.70238" lon="-0.66875">
        <ele>23.7</ele>
        <time>2014-04-19T16:59:09Z</time>
      </trkpt>
      <trkpt lat="47.70199" lon="-0.66907">
        <ele>23.4</ele>
        <time>2014-04-19T16:59:18Z</time>
      </trkpt>
      <trkpt lat="47.70186" lon="-0.66916">
        <ele>23.3</ele>
        <time>2014-04-19T16:59:23Z</time>
      </trkpt>
      <trkpt lat="47.70184" lon="-0.66917">
        <ele>23.3</ele>
        <time>2014-04-19T16:59:25Z</time>
      </trkpt>
      <trkpt lat="47.70183" lon="-0.66916">
        <ele>23.1</ele>
        <time>2014-04-19T16:59:46Z</time>
      </trkpt>
      <trkpt lat="47.7018" lon="-0.66917">
        <ele>23</ele>
        <time>2014-04-19T17:00:01Z</time>
      </trkpt>
      <trkpt lat="47.70165" lon="-0.66927">
        <ele>23</ele>
        <time>2014-04-19T17:00:07Z</time>
      </trkpt>
      <trkpt lat="47.70155" lon="-0.66935">
        <ele>23.3</ele>
        <time>2014-04-19T17:00:10Z</time>
      </trkpt>
      <trkpt lat="47.70132" lon="-0.66941">
        <ele>22.5</ele>
        <time>2014-04-19T17:00:17Z</time>
      </trkpt>
      <trkpt lat="47.70113" lon="-0.66949">
        <ele>22.1</ele>
        <time>2014-04-19T17:00:22Z</time>
      </trkpt>
      <trkpt lat="47.70109" lon="-0.6695">
        <ele>21.9</ele>
        <time>2014-04-19T17:00:24Z</time>
      </trkpt>
      <trkpt lat="47.701" lon="-0.66955">
        <ele>21.5</ele>
        <time>2014-04-19T17:00:27Z</time>
      </trkpt>
      <trkpt lat="47.70089" lon="-0.66961">
        <ele>21.3</ele>
        <time>2014-04-19T17:00:31Z</time>
      </trkpt>
      <trkpt lat="47.70069" lon="-0.66972">
        <ele>21.4</ele>
        <time>2014-04-19T17:00:37Z</time>
      </trkpt>
      <trkpt lat="47.70031" lon="-0.66992">
        <ele>21.4</ele>
        <time>2014-04-19T17:00:44Z</time>
      </trkpt>
      <trkpt lat="47.69985" lon="-0.67018">
        <ele>20.6</ele>
        <time>2014-04-19T17:00:52Z</time>
      </trkpt>
      <trkpt lat="47.69924" lon="-0.67051">
        <ele>20.7</ele>
        <time>2014-04-19T17:01:02Z</time>
      </trkpt>
      <trkpt lat="47.69878" lon="-0.67076">
        <ele>20.2</ele>
        <time>2014-04-19T17:01:10Z</time>
      </trkpt>
      <trkpt lat="47.69845" lon="-0.6711">
        <ele>19.8</ele>
        <time>2014-04-19T17:01:16Z</time>
      </trkpt>
      <trkpt lat="47.69791" lon="-0.67177">
        <ele>20.1</ele>
        <time>2014-04-19T17:01:26Z</time>
      </trkpt>
      <trkpt lat="47.69765" lon="-0.67215">
        <ele>19.9</ele>
        <time>2014-04-19T17:01:32Z</time>
      </trkpt>
      <trkpt lat="47.69732" lon="-0.67263">
        <ele>20.3</ele>
        <time>2014-04-19T17:01:39Z</time>
      </trkpt>
      <trkpt lat="47.69696" lon="-0.67319">
        <ele>21</ele>
        <time>2014-04-19T17:01:47Z</time>
      </trkpt>
      <trkpt lat="47.69655" lon="-0.67378">
        <ele>22.3</ele>
        <time>2014-04-19T17:01:55Z</time>
      </trkpt>
      <trkpt lat="47.69622" lon="-0.67417">
        <ele>21.6</ele>
        <time>2014-04-19T17:02:01Z</time>
      </trkpt>
      <trkpt lat="47.69583" lon="-0.67465">
        <ele>21.2</ele>
        <time>2014-04-19T17:02:09Z</time>
      </trkpt>
      <trkpt lat="47.69534" lon="-0.67525">
        <ele>21.3</ele>
        <time>2014-04-19T17:02:18Z</time>
      </trkpt>
      <trkpt lat="47.69502" lon="-0.67561">
        <ele>20.6</ele>
        <time>2014-04-19T17:02:24Z</time>
      </trkpt>
      <trkpt lat="47.69468" lon="-0.67597">
        <ele>20.9</ele>
        <time>2014-04-19T17:02:30Z</time>
      </trkpt>
      <trkpt lat="47.69423" lon="-0.67643">
        <ele>20.8</ele>
        <time>2014-04-19T17:02:38Z</time>
      </trkpt>
      <trkpt lat="47.69381" lon="-0.67675">
        <ele>20.7</ele>
        <time>2014-04-19T17:02:45Z</time>
      </trkpt>
      <trkpt lat="47.69326" lon="-0.67721">
        <ele>20.7</ele>
        <time>2014-04-19T17:02:55Z</time>
      </trkpt>
      <trkpt lat="47.69295" lon="-0.6775">
        <ele>20.6</ele>
        <time>2014-04-19T17:03:01Z</time>
      </trkpt>
      <trkpt lat="47.69261" lon="-0.67788">
        <ele>21.8</ele>
        <time>2014-04-19T17:03:08Z</time>
      </trkpt>
      <trkpt lat="47.69221" lon="-0.67818">
        <ele>20.4</ele>
        <time>2014-04-19T17:03:15Z</time>
      </trkpt>
      <trkpt lat="47.69191" lon="-0.67849">
        <ele>20.5</ele>
        <time>2014-04-19T17:03:21Z</time>
      </trkpt>
      <trkpt lat="47.69149" lon="-0.67893">
        <ele>20.2</ele>
        <time>2014-04-19T17:03:29Z</time>
      </trkpt>
      <trkpt lat="47.69109" lon="-0.67935">
        <ele>20.9</ele>
        <time>2014-04-19T17:03:37Z</time>
      </trkpt>
      <trkpt lat="47.69096" lon="-0.67949">
        <ele>20.6</ele>
        <time>2014-04-19T17:03:40Z</time>
      </trkpt>
      <trkpt lat="47.69079" lon="-0.67967">
        <ele>20.7</ele>
        <time>2014-04-19T17:03:44Z</time>
      </trkpt>
      <trkpt lat="47.69045" lon="-0.68003">
        <ele>20.8</ele>
        <time>2014-04-19T17:03:52Z</time>
      </trkpt>
      <trkpt lat="47.69024" lon="-0.68026">
        <ele>21.6</ele>
        <time>2014-04-19T17:03:57Z</time>
      </trkpt>
      <trkpt lat="47.68994" lon="-0.68053">
        <ele>22.4</ele>
        <time>2014-04-19T17:04:04Z</time>
      </trkpt>
      <trkpt lat="47.68977" lon="-0.68067">
        <ele>24.2</ele>
        <time>2014-04-19T17:04:09Z</time>
      </trkpt>
      <trkpt lat="47.68971" lon="-0.6807">
        <ele>24.4</ele>
        <time>2014-04-19T17:04:13Z</time>
      </trkpt>
      <trkpt lat="47.68962" lon="-0.68072">
        <ele>23.4</ele>
        <time>2014-04-19T17:04:18Z</time>
      </trkpt>
      <trkpt lat="47.68944" lon="-0.68075">
        <ele>22.1</ele>
        <time>2014-04-19T17:04:22Z</time>
      </trkpt>
      <trkpt lat="47.68927" lon="-0.68077">
        <ele>21.9</ele>
        <time>2014-04-19T17:04:25Z</time>
      </trkpt>
      <trkpt lat="47.68911" lon="-0.6808">
        <ele>21.6</ele>
        <time>2014-04-19T17:04:28Z</time>
      </trkpt>
      <trkpt lat="47.68903" lon="-0.68083">
        <ele>21.5</ele>
        <time>2014-04-19T17:04:30Z</time>
      </trkpt>
      <trkpt lat="47.68871" lon="-0.68089">
        <ele>20.7</ele>
        <time>2014-04-19T17:04:37Z</time>
      </trkpt>
      <trkpt lat="47.68838" lon="-0.68092">
        <ele>20.6</ele>
        <time>2014-04-19T17:04:43Z</time>
      </trkpt>
      <trkpt lat="47.68789" lon="-0.68086">
        <ele>20.7</ele>
        <time>2014-04-19T17:04:51Z</time>
      </trkpt>
      <trkpt lat="47.68737" lon="-0.68075">
        <ele>20.7</ele>
        <time>2014-04-19T17:04:59Z</time>
      </trkpt>
      <trkpt lat="47.68707" lon="-0.68075">
        <ele>21.2</ele>
        <time>2014-04-19T17:05:04Z</time>
      </trkpt>
      <trkpt lat="47.68704" lon="-0.68071">
        <ele>21.2</ele>
        <time>2014-04-19T17:05:05Z</time>
      </trkpt>
      <trkpt lat="47.68669" lon="-0.68055">
        <ele>21</ele>
        <time>2014-04-19T17:05:11Z</time>
      </trkpt>
      <trkpt lat="47.68657" lon="-0.68052">
        <ele>21</ele>
        <time>2014-04-19T17:05:13Z</time>
      </trkpt>
      <trkpt lat="47.68614" lon="-0.68049">
        <ele>21</ele>
        <time>2014-04-19T17:05:21Z</time>
      </trkpt>
      <trkpt lat="47.68587" lon="-0.68055">
        <ele>21</ele>
        <time>2014-04-19T17:05:26Z</time>
      </trkpt>
      <trkpt lat="47.68561" lon="-0.68071">
        <ele>21.4</ele>
        <time>2014-04-19T17:05:31Z</time>
      </trkpt>
      <trkpt lat="47.6853" lon="-0.68111">
        <ele>21</ele>
        <time>2014-04-19T17:05:38Z</time>
      </trkpt>
      <trkpt lat="47.68498" lon="-0.68154">
        <ele>21</ele>
        <time>2014-04-19T17:05:45Z</time>
      </trkpt>
      <trkpt lat="47.68454" lon="-0.68202">
        <ele>21.4</ele>
        <time>2014-04-19T17:05:54Z</time>
      </trkpt>
      <trkpt lat="47.68419" lon="-0.68237">
        <ele>21</ele>
        <time>2014-04-19T17:06:01Z</time>
      </trkpt>
      <trkpt lat="47.68378" lon="-0.68276">
        <ele>21</ele>
        <time>2014-04-19T17:06:09Z</time>
      </trkpt>
      <trkpt lat="47.6834" lon="-0.68305">
        <ele>21</ele>
        <time>2014-04-19T17:06:16Z</time>
      </trkpt>
      <trkpt lat="47.68314" lon="-0.68324">
        <ele>21</ele>
        <time>2014-04-19T17:06:21Z</time>
      </trkpt>
      <trkpt lat="47.68292" lon="-0.68339">
        <ele>21</ele>
        <time>2014-04-19T17:06:26Z</time>
      </trkpt>
      <trkpt lat="47.68267" lon="-0.68356">
        <ele>21</ele>
        <time>2014-04-19T17:06:31Z</time>
      </trkpt>
      <trkpt lat="47.68242" lon="-0.68374">
        <ele>21</ele>
        <time>2014-04-19T17:06:36Z</time>
      </trkpt>
      <trkpt lat="47.68199" lon="-0.68405">
        <ele>21</ele>
        <time>2014-04-19T17:06:44Z</time>
      </trkpt>
      <trkpt lat="47.68152" lon="-0.68443">
        <ele>21</ele>
        <time>2014-04-19T17:06:53Z</time>
      </trkpt>
      <trkpt lat="47.68117" lon="-0.6848">
        <ele>21</ele>
        <time>2014-04-19T17:07:00Z</time>
      </trkpt>
      <trkpt lat="47.68104" lon="-0.68497">
        <ele>20.7</ele>
        <time>2014-04-19T17:07:03Z</time>
      </trkpt>
      <trkpt lat="47.6807" lon="-0.68559">
        <ele>20.1</ele>
        <time>2014-04-19T17:07:12Z</time>
      </trkpt>
      <trkpt lat="47.68053" lon="-0.68621">
        <ele>21</ele>
        <time>2014-04-19T17:07:19Z</time>
      </trkpt>
      <trkpt lat="47.68033" lon="-0.68679">
        <ele>21</ele>
        <time>2014-04-19T17:07:26Z</time>
      </trkpt>
      <trkpt lat="47.68008" lon="-0.68715">
        <ele>21.7</ele>
        <time>2014-04-19T17:07:32Z</time>
      </trkpt>
      <trkpt lat="47.67981" lon="-0.68742">
        <ele>22.7</ele>
        <time>2014-04-19T17:07:38Z</time>
      </trkpt>
      <trkpt lat="47.67976" lon="-0.68746">
        <ele>22.3</ele>
        <time>2014-04-19T17:07:39Z</time>
      </trkpt>
      <trkpt lat="47.67963" lon="-0.68756">
        <ele>21.6</ele>
        <time>2014-04-19T17:07:43Z</time>
      </trkpt>
      <trkpt lat="47.67954" lon="-0.68767">
        <ele>21.7</ele>
        <time>2014-04-19T17:07:46Z</time>
      </trkpt>
      <trkpt lat="47.67943" lon="-0.68782">
        <ele>22.1</ele>
        <time>2014-04-19T17:07:49Z</time>
      </trkpt>
      <trkpt lat="47.67925" lon="-0.68793">
        <ele>21.9</ele>
        <time>2014-04-19T17:07:53Z</time>
      </trkpt>
      <trkpt lat="47.67892" lon="-0.68808">
        <ele>22.3</ele>
        <time>2014-04-19T17:08:00Z</time>
      </trkpt>
      <trkpt lat="47.67861" lon="-0.68819">
        <ele>21</ele>
        <time>2014-04-19T17:08:06Z</time>
      </trkpt>
      <trkpt lat="47.67829" lon="-0.6883">
        <ele>21.7</ele>
        <time>2014-04-19T17:08:13Z</time>
      </trkpt>
      <trkpt lat="47.67812" lon="-0.68835">
        <ele>22.1</ele>
        <time>2014-04-19T17:08:18Z</time>
      </trkpt>
      <trkpt lat="47.67809" lon="-0.68836">
        <ele>22.1</ele>
        <time>2014-04-19T17:08:20Z</time>
      </trkpt>
      <trkpt lat="47.6781" lon="-0.68838">
        <ele>22.3</ele>
        <time>2014-04-19T17:08:53Z</time>
      </trkpt>
      <trkpt lat="47.6781" lon="-0.68838">
        <ele>22.3</ele>
        <time>2014-04-19T17:09:15Z</time>
      </trkpt>
      <trkpt lat="47.67812" lon="-0.68845">
        <ele>22.7</ele>
        <time>2014-04-19T17:09:21Z</time>
      </trkpt>
      <trkpt lat="47.67812" lon="-0.68846">
        <ele>22.7</ele>
        <time>2014-04-19T17:09:39Z</time>
      </trkpt>
      <trkpt lat="47.67812" lon="-0.68846">
        <ele>22.7</ele>
        <time>2014-04-19T17:14:24Z</time>
      </trkpt>
      <trkpt lat="47.67812" lon="-0.68846">
        <ele>22.7</ele>
        <time>2014-04-19T17:15:30Z</time>
      </trkpt>
      <trkpt lat="47.67816" lon="-0.68851">
        <ele>23.4</ele>
        <time>2014-04-19T17:15:35Z</time>
      </trkpt>
      <trkpt lat="47.67828" lon="-0.6885">
        <ele>24.1</ele>
        <time>2014-04-19T17:15:43Z</time>
      </trkpt>
      <trkpt lat="47.6784" lon="-0.68849">
        <ele>24.8</ele>
        <time>2014-04-19T17:15:49Z</time>
      </trkpt>
      <trkpt lat="47.67853" lon="-0.68849">
        <ele>25.9</ele>
        <time>2014-04-19T17:15:55Z</time>
      </trkpt>
      <trkpt lat="47.6787" lon="-0.68849">
        <ele>27</ele>
        <time>2014-04-19T17:16:03Z</time>
      </trkpt>
      <trkpt lat="47.67886" lon="-0.68849">
        <ele>27.7</ele>
        <time>2014-04-19T17:16:09Z</time>
      </trkpt>
      <trkpt lat="47.67904" lon="-0.6885">
        <ele>27.7</ele>
        <time>2014-04-19T17:16:17Z</time>
      </trkpt>
      <trkpt lat="47.67918" lon="-0.68856">
        <ele>28.2</ele>
        <time>2014-04-19T17:16:23Z</time>
      </trkpt>
      <trkpt lat="47.67937" lon="-0.68879">
        <ele>29.6</ele>
        <time>2014-04-19T17:16:32Z</time>
      </trkpt>
      <trkpt lat="47.67957" lon="-0.68905">
        <ele>30.6</ele>
        <time>2014-04-19T17:16:41Z</time>
      </trkpt>
      <trkpt lat="47.6798" lon="-0.68929">
        <ele>31</ele>
        <time>2014-04-19T17:16:50Z</time>
      </trkpt>
      <trkpt lat="47.68" lon="-0.6896">
        <ele>31.6</ele>
        <time>2014-04-19T17:16:58Z</time>
      </trkpt>
      <trkpt lat="47.68017" lon="-0.69002">
        <ele>32.6</ele>
        <time>2014-04-19T17:17:06Z</time>
      </trkpt>
      <trkpt lat="47.68034" lon="-0.6904">
        <ele>33.7</ele>
        <time>2014-04-19T17:17:14Z</time>
      </trkpt>
      <trkpt lat="47.68053" lon="-0.69073">
        <ele>35</ele>
        <time>2014-04-19T17:17:22Z</time>
      </trkpt>
      <trkpt lat="47.68071" lon="-0.69104">
        <ele>36</ele>
        <time>2014-04-19T17:17:30Z</time>
      </trkpt>
      <trkpt lat="47.68085" lon="-0.69142">
        <ele>36.1</ele>
        <time>2014-04-19T17:17:38Z</time>
      </trkpt>
      <trkpt lat="47.68101" lon="-0.69184">
        <ele>36.6</ele>
        <time>2014-04-19T17:17:46Z</time>
      </trkpt>
      <trkpt lat="47.68117" lon="-0.69224">
        <ele>37.2</ele>
        <time>2014-04-19T17:17:53Z</time>
      </trkpt>
      <trkpt lat="47.68132" lon="-0.69259">
        <ele>38.2</ele>
        <time>2014-04-19T17:18:00Z</time>
      </trkpt>
      <trkpt lat="47.68134" lon="-0.69265">
        <ele>38.4</ele>
        <time>2014-04-19T17:18:03Z</time>
      </trkpt>
      <trkpt lat="47.68134" lon="-0.69265">
        <ele>38.4</ele>
        <time>2014-04-19T17:18:24Z</time>
      </trkpt>
      <trkpt lat="47.68125" lon="-0.6928">
        <ele>38.5</ele>
        <time>2014-04-19T17:18:29Z</time>
      </trkpt>
      <trkpt lat="47.68098" lon="-0.69315">
        <ele>38.3</ele>
        <time>2014-04-19T17:18:37Z</time>
      </trkpt>
      <trkpt lat="47.68076" lon="-0.69337">
        <ele>38.8</ele>
        <time>2014-04-19T17:18:43Z</time>
      </trkpt>
      <trkpt lat="47.68043" lon="-0.69358">
        <ele>38</ele>
        <time>2014-04-19T17:18:49Z</time>
      </trkpt>
      <trkpt lat="47.67994" lon="-0.69386">
        <ele>36.6</ele>
        <time>2014-04-19T17:18:56Z</time>
      </trkpt>
      <trkpt lat="47.67945" lon="-0.69403">
        <ele>33</ele>
        <time>2014-04-19T17:19:02Z</time>
      </trkpt>
      <trkpt lat="47.67877" lon="-0.69408">
        <ele>30.8</ele>
        <time>2014-04-19T17:19:10Z</time>
      </trkpt>
      <trkpt lat="47.67833" lon="-0.69423">
        <ele>33</ele>
        <time>2014-04-19T17:19:16Z</time>
      </trkpt>
      <trkpt lat="47.67783" lon="-0.69439">
        <ele>34.7</ele>
        <time>2014-04-19T17:19:24Z</time>
      </trkpt>
      <trkpt lat="47.67734" lon="-0.69459">
        <ele>36.1</ele>
        <time>2014-04-19T17:19:33Z</time>
      </trkpt>
      <trkpt lat="47.67721" lon="-0.69471">
        <ele>36.2</ele>
        <time>2014-04-19T17:19:36Z</time>
      </trkpt>
      <trkpt lat="47.6769" lon="-0.6951">
        <ele>38.1</ele>
        <time>2014-04-19T17:19:45Z</time>
      </trkpt>
      <trkpt lat="47.6768" lon="-0.69529">
        <ele>39.5</ele>
        <time>2014-04-19T17:19:49Z</time>
      </trkpt>
      <trkpt lat="47.67665" lon="-0.69575">
        <ele>40.8</ele>
        <time>2014-04-19T17:19:59Z</time>
      </trkpt>
      <trkpt lat="47.67651" lon="-0.69614">
        <ele>43.2</ele>
        <time>2014-04-19T17:20:08Z</time>
      </trkpt>
      <trkpt lat="47.67638" lon="-0.69642">
        <ele>44.2</ele>
        <time>2014-04-19T17:20:15Z</time>
      </trkpt>
      <trkpt lat="47.67618" lon="-0.69675">
        <ele>46.1</ele>
        <time>2014-04-19T17:20:24Z</time>
      </trkpt>
      <trkpt lat="47.67598" lon="-0.69707">
        <ele>47.7</ele>
        <time>2014-04-19T17:20:34Z</time>
      </trkpt>
      <trkpt lat="47.67579" lon="-0.69736">
        <ele>49.2</ele>
        <time>2014-04-19T17:20:44Z</time>
      </trkpt>
      <trkpt lat="47.6756" lon="-0.69754">
        <ele>49.8</ele>
        <time>2014-04-19T17:20:52Z</time>
      </trkpt>
      <trkpt lat="47.67534" lon="-0.69762">
        <ele>50.8</ele>
        <time>2014-04-19T17:21:00Z</time>
      </trkpt>
      <trkpt lat="47.67509" lon="-0.69768">
        <ele>51.7</ele>
        <time>2014-04-19T17:21:07Z</time>
      </trkpt>
      <trkpt lat="47.67481" lon="-0.69775">
        <ele>52.7</ele>
        <time>2014-04-19T17:21:15Z</time>
      </trkpt>
      <trkpt lat="47.6745" lon="-0.69783">
        <ele>54</ele>
        <time>2014-04-19T17:21:24Z</time>
      </trkpt>
      <trkpt lat="47.67416" lon="-0.69792">
        <ele>54.5</ele>
        <time>2014-04-19T17:21:33Z</time>
      </trkpt>
      <trkpt lat="47.67396" lon="-0.69797">
        <ele>54.9</ele>
        <time>2014-04-19T17:21:39Z</time>
      </trkpt>
      <trkpt lat="47.6738" lon="-0.69804">
        <ele>55.3</ele>
        <time>2014-04-19T17:21:43Z</time>
      </trkpt>
      <trkpt lat="47.67341" lon="-0.69821">
        <ele>56</ele>
        <time>2014-04-19T17:21:52Z</time>
      </trkpt>
      <trkpt lat="47.67299" lon="-0.6984">
        <ele>55.2</ele>
        <time>2014-04-19T17:22:00Z</time>
      </trkpt>
      <trkpt lat="47.67239" lon="-0.69866">
        <ele>55</ele>
        <time>2014-04-19T17:22:10Z</time>
      </trkpt>
      <trkpt lat="47.67197" lon="-0.69893">
        <ele>54.1</ele>
        <time>2014-04-19T17:22:17Z</time>
      </trkpt>
      <trkpt lat="47.67158" lon="-0.69934">
        <ele>53.1</ele>
        <time>2014-04-19T17:22:24Z</time>
      </trkpt>
      <trkpt lat="47.67126" lon="-0.69976">
        <ele>51.6</ele>
        <time>2014-04-19T17:22:30Z</time>
      </trkpt>
      <trkpt lat="47.67086" lon="-0.70008">
        <ele>51</ele>
        <time>2014-04-19T17:22:36Z</time>
      </trkpt>
      <trkpt lat="47.6703" lon="-0.70037">
        <ele>51.3</ele>
        <time>2014-04-19T17:22:44Z</time>
      </trkpt>
      <trkpt lat="47.66963" lon="-0.70065">
        <ele>49.7</ele>
        <time>2014-04-19T17:22:53Z</time>
      </trkpt>
      <trkpt lat="47.66888" lon="-0.70093">
        <ele>46.6</ele>
        <time>2014-04-19T17:23:02Z</time>
      </trkpt>
      <trkpt lat="47.66812" lon="-0.70118">
        <ele>43.4</ele>
        <time>2014-04-19T17:23:11Z</time>
      </trkpt>
      <trkpt lat="47.6672" lon="-0.70151">
        <ele>39.9</ele>
        <time>2014-04-19T17:23:21Z</time>
      </trkpt>
      <trkpt lat="47.66647" lon="-0.70176">
        <ele>40.1</ele>
        <time>2014-04-19T17:23:29Z</time>
      </trkpt>
      <trkpt lat="47.66601" lon="-0.70188">
        <ele>42.2</ele>
        <time>2014-04-19T17:23:35Z</time>
      </trkpt>
      <trkpt lat="47.66558" lon="-0.70199">
        <ele>43.2</ele>
        <time>2014-04-19T17:23:42Z</time>
      </trkpt>
      <trkpt lat="47.6649" lon="-0.70217">
        <ele>45.3</ele>
        <time>2014-04-19T17:23:55Z</time>
      </trkpt>
      <trkpt lat="47.66455" lon="-0.70226">
        <ele>46.7</ele>
        <time>2014-04-19T17:24:03Z</time>
      </trkpt>
      <trkpt lat="47.66422" lon="-0.70234">
        <ele>47.8</ele>
        <time>2014-04-19T17:24:11Z</time>
      </trkpt>
      <trkpt lat="47.66386" lon="-0.70242">
        <ele>47.8</ele>
        <time>2014-04-19T17:24:19Z</time>
      </trkpt>
      <trkpt lat="47.66335" lon="-0.70254">
        <ele>47.2</ele>
        <time>2014-04-19T17:24:29Z</time>
      </trkpt>
      <trkpt lat="47.6629" lon="-0.70264">
        <ele>47</ele>
        <time>2014-04-19T17:24:37Z</time>
      </trkpt>
      <trkpt lat="47.66239" lon="-0.7027">
        <ele>46</ele>
        <time>2014-04-19T17:24:45Z</time>
      </trkpt>
      <trkpt lat="47.66171" lon="-0.70264">
        <ele>45.6</ele>
        <time>2014-04-19T17:24:55Z</time>
      </trkpt>
      <trkpt lat="47.66103" lon="-0.70248">
        <ele>44</ele>
        <time>2014-04-19T17:25:05Z</time>
      </trkpt>
      <trkpt lat="47.66052" lon="-0.7023">
        <ele>43</ele>
        <time>2014-04-19T17:25:13Z</time>
      </trkpt>
      <trkpt lat="47.66009" lon="-0.70196">
        <ele>42</ele>
        <time>2014-04-19T17:25:20Z</time>
      </trkpt>
      <trkpt lat="47.65971" lon="-0.70171">
        <ele>42</ele>
        <time>2014-04-19T17:25:26Z</time>
      </trkpt>
      <trkpt lat="47.65926" lon="-0.70158">
        <ele>41.5</ele>
        <time>2014-04-19T17:25:33Z</time>
      </trkpt>
      <trkpt lat="47.65895" lon="-0.70151">
        <ele>41.4</ele>
        <time>2014-04-19T17:25:38Z</time>
      </trkpt>
      <trkpt lat="47.65842" lon="-0.7014">
        <ele>42</ele>
        <time>2014-04-19T17:25:47Z</time>
      </trkpt>
      <trkpt lat="47.65791" lon="-0.70129">
        <ele>40.7</ele>
        <time>2014-04-19T17:25:56Z</time>
      </trkpt>
      <trkpt lat="47.65734" lon="-0.70121">
        <ele>40.4</ele>
        <time>2014-04-19T17:26:06Z</time>
      </trkpt>
      <trkpt lat="47.65692" lon="-0.70116">
        <ele>40.3</ele>
        <time>2014-04-19T17:26:14Z</time>
      </trkpt>
      <trkpt lat="47.65664" lon="-0.70113">
        <ele>40.1</ele>
      </trkpt>
      <trkpt lat="47.65627" lon="-0.70109">
        <ele>40</ele>
      </trkpt>
      <trkpt lat="47.65608" lon="-0.70106">
        <ele>40.5</ele>
      </trkpt>
      <trkpt lat="47.65607" lon="-0.70102">
        <ele>40.1</ele>
      </trkpt>
      <trkpt lat="47.6562" lon="-0.70101">
        <ele>39.3</ele>
      </trkpt>
      <trkpt lat="47.65651" lon="-0.70097">
        <ele>36.1</ele>
      </trkpt>
      <trkpt lat="47.65674" lon="-0.70089">
        <ele>32.9</ele>
      </trkpt>
      <trkpt lat="47.65702" lon="-0.70079">
        <ele>28.5</ele>
      </trkpt>
      <trkpt lat="47.65723" lon="-0.70063">
        <ele>22.5</ele>
      </trkpt>
      <trkpt lat="47.65749" lon="-0.70048">
        <ele>20.7</ele>
        <time>2014-04-19T17:27:42Z</time>
      </trkpt>
      <trkpt lat="47.65728" lon="-0.70041">
        <ele>20.5</ele>
        <time>2014-04-19T17:27:46Z</time>
      </trkpt>
      <trkpt lat="47.65684" lon="-0.70032">
        <ele>20.5</ele>
        <time>2014-04-19T17:27:54Z</time>
      </trkpt>
      <trkpt lat="47.65653" lon="-0.70026">
        <ele>21</ele>
        <time>2014-04-19T17:28:00Z</time>
      </trkpt>
      <trkpt lat="47.65648" lon="-0.70025">
        <ele>20.9</ele>
        <time>2014-04-19T17:28:01Z</time>
      </trkpt>
      <trkpt lat="47.65632" lon="-0.70024">
        <ele>20.9</ele>
        <time>2014-04-19T17:28:05Z</time>
      </trkpt>
      <trkpt lat="47.65586" lon="-0.70019">
        <ele>21.3</ele>
        <time>2014-04-19T17:28:14Z</time>
      </trkpt>
      <trkpt lat="47.65541" lon="-0.70012">
        <ele>20.9</ele>
        <time>2014-04-19T17:28:22Z</time>
      </trkpt>
      <trkpt lat="47.65491" lon="-0.70003">
        <ele>21.7</ele>
        <time>2014-04-19T17:28:31Z</time>
      </trkpt>
      <trkpt lat="47.65486" lon="-0.70001">
        <ele>21.9</ele>
        <time>2014-04-19T17:28:32Z</time>
      </trkpt>
      <trkpt lat="47.65448" lon="-0.69977">
        <ele>22.6</ele>
        <time>2014-04-19T17:28:41Z</time>
      </trkpt>
      <trkpt lat="47.6542" lon="-0.69953">
        <ele>23.5</ele>
        <time>2014-04-19T17:28:48Z</time>
      </trkpt>
      <trkpt lat="47.6539" lon="-0.69933">
        <ele>23.5</ele>
        <time>2014-04-19T17:28:55Z</time>
      </trkpt>
      <trkpt lat="47.65354" lon="-0.69889">
        <ele>25.2</ele>
        <time>2014-04-19T17:29:05Z</time>
      </trkpt>
      <trkpt lat="47.65348" lon="-0.69877">
        <ele>26.2</ele>
        <time>2014-04-19T17:29:08Z</time>
      </trkpt>
      <trkpt lat="47.65347" lon="-0.69875">
        <ele>26.2</ele>
        <time>2014-04-19T17:29:19Z</time>
      </trkpt>
      <trkpt lat="47.65343" lon="-0.69867">
        <ele>25.2</ele>
        <time>2014-04-19T17:29:33Z</time>
      </trkpt>
      <trkpt lat="47.6533" lon="-0.69842">
        <ele>23.4</ele>
        <time>2014-04-19T17:29:39Z</time>
      </trkpt>
      <trkpt lat="47.65317" lon="-0.69818">
        <ele>25.9</ele>
        <time>2014-04-19T17:29:44Z</time>
      </trkpt>
      <trkpt lat="47.65301" lon="-0.69796">
        <ele>24.9</ele>
        <time>2014-04-19T17:29:50Z</time>
      </trkpt>
      <trkpt lat="47.65296" lon="-0.69788">
        <ele>24.9</ele>
        <time>2014-04-19T17:29:52Z</time>
      </trkpt>
      <trkpt lat="47.65286" lon="-0.69776">
        <ele>23.9</ele>
        <time>2014-04-19T17:29:55Z</time>
      </trkpt>
      <trkpt lat="47.65269" lon="-0.69754">
        <ele>23</ele>
        <time>2014-04-19T17:30:01Z</time>
      </trkpt>
      <trkpt lat="47.65243" lon="-0.69718">
        <ele>22.1</ele>
        <time>2014-04-19T17:30:10Z</time>
      </trkpt>
      <trkpt lat="47.65222" lon="-0.69695">
        <ele>21</ele>
        <time>2014-04-19T17:30:17Z</time>
      </trkpt>
      <trkpt lat="47.65219" lon="-0.69691">
        <ele>21.5</ele>
        <time>2014-04-19T17:30:18Z</time>
      </trkpt>
      <trkpt lat="47.65188" lon="-0.69658">
        <ele>21.4</ele>
        <time>2014-04-19T17:30:26Z</time>
      </trkpt>
      <trkpt lat="47.65144" lon="-0.69609">
        <ele>23.4</ele>
        <time>2014-04-19T17:30:37Z</time>
      </trkpt>
      <trkpt lat="47.65108" lon="-0.69573">
        <ele>21.3</ele>
        <time>2014-04-19T17:30:46Z</time>
      </trkpt>
      <trkpt lat="47.65083" lon="-0.69549">
        <ele>21.3</ele>
        <time>2014-04-19T17:30:53Z</time>
      </trkpt>
      <trkpt lat="47.65064" lon="-0.69535">
        <ele>21.2</ele>
        <time>2014-04-19T17:30:58Z</time>
      </trkpt>
      <trkpt lat="47.65048" lon="-0.69509">
        <ele>20.6</ele>
        <time>2014-04-19T17:31:04Z</time>
      </trkpt>
      <trkpt lat="47.65037" lon="-0.69493">
        <ele>20.2</ele>
        <time>2014-04-19T17:31:07Z</time>
      </trkpt>
      <trkpt lat="47.65011" lon="-0.69466">
        <ele>19.6</ele>
        <time>2014-04-19T17:31:13Z</time>
      </trkpt>
      <trkpt lat="47.64984" lon="-0.69438">
        <ele>20.3</ele>
        <time>2014-04-19T17:31:19Z</time>
      </trkpt>
      <trkpt lat="47.64966" lon="-0.69416">
        <ele>20</ele>
        <time>2014-04-19T17:31:24Z</time>
      </trkpt>
      <trkpt lat="47.64957" lon="-0.6941">
        <ele>19.8</ele>
        <time>2014-04-19T17:31:26Z</time>
      </trkpt>
      <trkpt lat="47.6495" lon="-0.69404">
        <ele>19.6</ele>
        <time>2014-04-19T17:31:28Z</time>
      </trkpt>
      <trkpt lat="47.6492" lon="-0.6938">
        <ele>19.6</ele>
        <time>2014-04-19T17:31:36Z</time>
      </trkpt>
      <trkpt lat="47.64899" lon="-0.69362">
        <ele>19.7</ele>
        <time>2014-04-19T17:31:42Z</time>
      </trkpt>
      <trkpt lat="47.64866" lon="-0.69335">
        <ele>19.8</ele>
        <time>2014-04-19T17:31:49Z</time>
      </trkpt>
      <trkpt lat="47.64815" lon="-0.69298">
        <ele>19.7</ele>
        <time>2014-04-19T17:31:59Z</time>
      </trkpt>
      <trkpt lat="47.64768" lon="-0.69283">
        <ele>20</ele>
        <time>2014-04-19T17:32:07Z</time>
      </trkpt>
      <trkpt lat="47.64723" lon="-0.6927">
        <ele>19.7</ele>
        <time>2014-04-19T17:32:15Z</time>
      </trkpt>
      <trkpt lat="47.64659" lon="-0.69259">
        <ele>19.3</ele>
        <time>2014-04-19T17:32:26Z</time>
      </trkpt>
      <trkpt lat="47.64594" lon="-0.69253">
        <ele>19.1</ele>
        <time>2014-04-19T17:32:37Z</time>
      </trkpt>
      <trkpt lat="47.64577" lon="-0.69249">
        <ele>19.2</ele>
        <time>2014-04-19T17:32:40Z</time>
      </trkpt>
      <trkpt lat="47.64565" lon="-0.69253">
        <ele>19.7</ele>
        <time>2014-04-19T17:32:42Z</time>
      </trkpt>
      <trkpt lat="47.6453" lon="-0.69251">
        <ele>20</ele>
        <time>2014-04-19T17:32:48Z</time>
      </trkpt>
      <trkpt lat="47.64477" lon="-0.69247">
        <ele>19.9</ele>
        <time>2014-04-19T17:32:57Z</time>
      </trkpt>
      <trkpt lat="47.64448" lon="-0.69246">
        <ele>19.8</ele>
        <time>2014-04-19T17:33:02Z</time>
      </trkpt>
      <trkpt lat="47.64403" lon="-0.69243">
        <ele>19.8</ele>
        <time>2014-04-19T17:33:10Z</time>
      </trkpt>
      <trkpt lat="47.64366" lon="-0.69241">
        <ele>19.7</ele>
        <time>2014-04-19T17:33:17Z</time>
      </trkpt>
      <trkpt lat="47.64328" lon="-0.69238">
        <ele>19.6</ele>
        <time>2014-04-19T17:33:24Z</time>
      </trkpt>
      <trkpt lat="47.64323" lon="-0.69238">
        <ele>19.6</ele>
        <time>2014-04-19T17:33:25Z</time>
      </trkpt>
      <trkpt lat="47.6428" lon="-0.69238">
        <ele>19.6</ele>
        <time>2014-04-19T17:33:33Z</time>
      </trkpt>
      <trkpt lat="47.64237" lon="-0.69239">
        <ele>19.6</ele>
        <time>2014-04-19T17:33:41Z</time>
      </trkpt>
      <trkpt lat="47.64188" lon="-0.69252">
        <ele>19.8</ele>
        <time>2014-04-19T17:33:50Z</time>
      </trkpt>
      <trkpt lat="47.64168" lon="-0.69269">
        <ele>19.7</ele>
        <time>2014-04-19T17:33:54Z</time>
      </trkpt>
      <trkpt lat="47.64146" lon="-0.69277">
        <ele>20</ele>
        <time>2014-04-19T17:33:58Z</time>
      </trkpt>
      <trkpt lat="47.64104" lon="-0.69287">
        <ele>19.3</ele>
        <time>2014-04-19T17:34:05Z</time>
      </trkpt>
      <trkpt lat="47.64045" lon="-0.69326">
        <ele>19.4</ele>
        <time>2014-04-19T17:34:16Z</time>
      </trkpt>
      <trkpt lat="47.63998" lon="-0.69353">
        <ele>19.7</ele>
        <time>2014-04-19T17:34:25Z</time>
      </trkpt>
      <trkpt lat="47.63967" lon="-0.69373">
        <ele>19.4</ele>
        <time>2014-04-19T17:34:32Z</time>
      </trkpt>
      <trkpt lat="47.63934" lon="-0.69395">
        <ele>19.7</ele>
        <time>2014-04-19T17:34:39Z</time>
      </trkpt>
      <trkpt lat="47.63891" lon="-0.69415">
        <ele>19.1</ele>
        <time>2014-04-19T17:34:47Z</time>
      </trkpt>
      <trkpt lat="47.63848" lon="-0.69432">
        <ele>19.6</ele>
        <time>2014-04-19T17:34:55Z</time>
      </trkpt>
      <trkpt lat="47.63814" lon="-0.69442">
        <ele>19.9</ele>
        <time>2014-04-19T17:35:02Z</time>
      </trkpt>
      <trkpt lat="47.63782" lon="-0.69445">
        <ele>20</ele>
        <time>2014-04-19T17:35:08Z</time>
      </trkpt>
      <trkpt lat="47.63748" lon="-0.69431">
        <ele>19.5</ele>
        <time>2014-04-19T17:35:15Z</time>
      </trkpt>
      <trkpt lat="47.63739" lon="-0.69426">
        <ele>19.6</ele>
        <time>2014-04-19T17:35:17Z</time>
      </trkpt>
      <trkpt lat="47.63711" lon="-0.69408">
        <ele>19.7</ele>
        <time>2014-04-19T17:35:23Z</time>
      </trkpt>
      <trkpt lat="47.63683" lon="-0.69387">
        <ele>19.4</ele>
      </trkpt>
      <trkpt lat="47.63638" lon="-0.69346">
        <ele>19.5</ele>
      </trkpt>
      <trkpt lat="47.63608" lon="-0.6931">
        <ele>19.2</ele>
      </trkpt>
      <trkpt lat="47.63568" lon="-0.69278">
        <ele>19.6</ele>
      </trkpt>
      <trkpt lat="47.63524" lon="-0.69246">
        <ele>19.7</ele>
      </trkpt>
      <trkpt lat="47.63491" lon="-0.6922">
        <ele>19.3</ele>
      </trkpt>
      <trkpt lat="47.6346" lon="-0.69196">
        <ele>19.5</ele>
      </trkpt>
      <trkpt lat="47.6346" lon="-0.69195">
        <ele>19.5</ele>
      </trkpt>
      <trkpt lat="47.63434" lon="-0.69177">
        <ele>19.4</ele>
      </trkpt>
      <trkpt lat="47.63402" lon="-0.69161">
        <ele>19.4</ele>
      </trkpt>
      <trkpt lat="47.63384" lon="-0.6915">
        <ele>19.4</ele>
        <time>2014-04-19T17:37:22Z</time>
      </trkpt>
      <trkpt lat="47.63362" lon="-0.69125">
        <ele>19</ele>
        <time>2014-04-19T17:37:28Z</time>
      </trkpt>
      <trkpt lat="47.63353" lon="-0.69112">
        <ele>19.6</ele>
        <time>2014-04-19T17:37:31Z</time>
      </trkpt>
      <trkpt lat="47.63347" lon="-0.69104">
        <ele>19.7</ele>
        <time>2014-04-19T17:37:33Z</time>
      </trkpt>
      <trkpt lat="47.63331" lon="-0.69099">
        <ele>20</ele>
        <time>2014-04-19T17:37:38Z</time>
      </trkpt>
      <trkpt lat="47.6333" lon="-0.69103">
        <ele>20.2</ele>
        <time>2014-04-19T17:37:39Z</time>
      </trkpt>
      <trkpt lat="47.63317" lon="-0.69111">
        <ele>19.8</ele>
        <time>2014-04-19T17:37:43Z</time>
      </trkpt>
      <trkpt lat="47.63303" lon="-0.69122">
        <ele>19</ele>
        <time>2014-04-19T17:37:47Z</time>
      </trkpt>
      <trkpt lat="47.63274" lon="-0.69136">
        <ele>19.8</ele>
        <time>2014-04-19T17:37:54Z</time>
      </trkpt>
      <trkpt lat="47.63269" lon="-0.69139">
        <ele>19.7</ele>
        <time>2014-04-19T17:37:55Z</time>
      </trkpt>
      <trkpt lat="47.63237" lon="-0.69139">
        <ele>19</ele>
        <time>2014-04-19T17:38:01Z</time>
      </trkpt>
      <trkpt lat="47.63203" lon="-0.69144">
        <ele>19.2</ele>
        <time>2014-04-19T17:38:07Z</time>
      </trkpt>
      <trkpt lat="47.63198" lon="-0.69146">
        <ele>19.2</ele>
        <time>2014-04-19T17:38:08Z</time>
      </trkpt>
      <trkpt lat="47.63177" lon="-0.69152">
        <ele>19.2</ele>
        <time>2014-04-19T17:38:12Z</time>
      </trkpt>
      <trkpt lat="47.6314" lon="-0.6916">
        <ele>19.7</ele>
        <time>2014-04-19T17:38:19Z</time>
      </trkpt>
      <trkpt lat="47.63103" lon="-0.69176">
        <ele>19.3</ele>
        <time>2014-04-19T17:38:26Z</time>
      </trkpt>
      <trkpt lat="47.63047" lon="-0.69195">
        <ele>19.7</ele>
        <time>2014-04-19T17:38:36Z</time>
      </trkpt>
      <trkpt lat="47.6299" lon="-0.69215">
        <ele>19.7</ele>
        <time>2014-04-19T17:38:46Z</time>
      </trkpt>
      <trkpt lat="47.6295" lon="-0.69224">
        <ele>20</ele>
        <time>2014-04-19T17:38:53Z</time>
      </trkpt>
      <trkpt lat="47.62911" lon="-0.6923">
        <ele>19.3</ele>
        <time>2014-04-19T17:39:00Z</time>
      </trkpt>
      <trkpt lat="47.6287" lon="-0.69237">
        <ele>19.5</ele>
        <time>2014-04-19T17:39:07Z</time>
      </trkpt>
      <trkpt lat="47.62828" lon="-0.69243">
        <ele>19.7</ele>
        <time>2014-04-19T17:39:14Z</time>
      </trkpt>
      <trkpt lat="47.62795" lon="-0.69241">
        <ele>19.7</ele>
        <time>2014-04-19T17:39:20Z</time>
      </trkpt>
      <trkpt lat="47.62763" lon="-0.69237">
        <ele>19.5</ele>
        <time>2014-04-19T17:39:26Z</time>
      </trkpt>
      <trkpt lat="47.62732" lon="-0.69237">
        <ele>19.5</ele>
        <time>2014-04-19T17:39:32Z</time>
      </trkpt>
      <trkpt lat="47.62686" lon="-0.69241">
        <ele>19.7</ele>
        <time>2014-04-19T17:39:40Z</time>
      </trkpt>
      <trkpt lat="47.62639" lon="-0.69245">
        <ele>19.8</ele>
        <time>2014-04-19T17:39:48Z</time>
      </trkpt>
      <trkpt lat="47.62594" lon="-0.69244">
        <ele>19.3</ele>
        <time>2014-04-19T17:39:56Z</time>
      </trkpt>
      <trkpt lat="47.62588" lon="-0.69243">
        <ele>19.1</ele>
        <time>2014-04-19T17:39:57Z</time>
      </trkpt>
      <trkpt lat="47.62556" lon="-0.69248">
        <ele>19</ele>
        <time>2014-04-19T17:40:03Z</time>
      </trkpt>
      <trkpt lat="47.62517" lon="-0.69259">
        <ele>19</ele>
        <time>2014-04-19T17:40:10Z</time>
      </trkpt>
      <trkpt lat="47.62491" lon="-0.69265">
        <ele>19.2</ele>
        <time>2014-04-19T17:40:15Z</time>
      </trkpt>
      <trkpt lat="47.62455" lon="-0.69279">
        <ele>19.4</ele>
        <time>2014-04-19T17:40:22Z</time>
      </trkpt>
      <trkpt lat="47.62445" lon="-0.69283">
        <ele>19</ele>
        <time>2014-04-19T17:40:24Z</time>
      </trkpt>
      <trkpt lat="47.62427" lon="-0.69288">
        <ele>19</ele>
        <time>2014-04-19T17:40:28Z</time>
      </trkpt>
      <trkpt lat="47.6241" lon="-0.69295">
        <ele>19.2</ele>
        <time>2014-04-19T17:40:32Z</time>
      </trkpt>
      <trkpt lat="47.62395" lon="-0.69302">
        <ele>19.7</ele>
        <time>2014-04-19T17:40:35Z</time>
      </trkpt>
      <trkpt lat="47.62366" lon="-0.6932">
        <ele>19.1</ele>
        <time>2014-04-19T17:40:41Z</time>
      </trkpt>
      <trkpt lat="47.62349" lon="-0.69334">
        <ele>19</ele>
        <time>2014-04-19T17:40:45Z</time>
      </trkpt>
      <trkpt lat="47.62324" lon="-0.69358">
        <ele>19</ele>
        <time>2014-04-19T17:40:50Z</time>
      </trkpt>
      <trkpt lat="47.62296" lon="-0.69385">
        <ele>19</ele>
        <time>2014-04-19T17:40:56Z</time>
      </trkpt>
      <trkpt lat="47.62271" lon="-0.69409">
        <ele>19</ele>
        <time>2014-04-19T17:41:01Z</time>
      </trkpt>
      <trkpt lat="47.62247" lon="-0.69429">
        <ele>19</ele>
        <time>2014-04-19T17:41:06Z</time>
      </trkpt>
      <trkpt lat="47.62215" lon="-0.69451">
        <ele>19.1</ele>
        <time>2014-04-19T17:41:13Z</time>
      </trkpt>
      <trkpt lat="47.62193" lon="-0.69466">
        <ele>19.7</ele>
        <time>2014-04-19T17:41:19Z</time>
      </trkpt>
      <trkpt lat="47.62167" lon="-0.69483">
        <ele>19</ele>
        <time>2014-04-19T17:41:26Z</time>
      </trkpt>
      <trkpt lat="47.62143" lon="-0.69495">
        <ele>19.7</ele>
        <time>2014-04-19T17:41:34Z</time>
      </trkpt>
      <trkpt lat="47.62121" lon="-0.69509">
        <ele>19.3</ele>
        <time>2014-04-19T17:41:41Z</time>
      </trkpt>
      <trkpt lat="47.62107" lon="-0.69522">
        <ele>19</ele>
        <time>2014-04-19T17:41:46Z</time>
      </trkpt>
      <trkpt lat="47.62089" lon="-0.69534">
        <ele>19</ele>
        <time>2014-04-19T17:41:51Z</time>
      </trkpt>
      <trkpt lat="47.62063" lon="-0.69553">
        <ele>19</ele>
        <time>2014-04-19T17:41:58Z</time>
      </trkpt>
      <trkpt lat="47.62045" lon="-0.69565">
        <ele>20.3</ele>
        <time>2014-04-19T17:42:04Z</time>
      </trkpt>
      <trkpt lat="47.62029" lon="-0.69564">
        <ele>20.6</ele>
        <time>2014-04-19T17:42:09Z</time>
      </trkpt>
      <trkpt lat="47.62025" lon="-0.69564">
        <ele>20.5</ele>
        <time>2014-04-19T17:42:12Z</time>
      </trkpt>
      <trkpt lat="47.62025" lon="-0.69561">
        <ele>20</ele>
        <time>2014-04-19T17:42:42Z</time>
      </trkpt>
      <trkpt lat="47.62015" lon="-0.69559">
        <ele>19.7</ele>
        <time>2014-04-19T17:42:46Z</time>
      </trkpt>
      <trkpt lat="47.61998" lon="-0.69568">
        <ele>21.8</ele>
        <time>2014-04-19T17:42:51Z</time>
      </trkpt>
      <trkpt lat="47.61972" lon="-0.69557">
        <ele>22.2</ele>
        <time>2014-04-19T17:42:57Z</time>
      </trkpt>
      <trkpt lat="47.61964" lon="-0.69553">
        <ele>22.8</ele>
        <time>2014-04-19T17:42:59Z</time>
      </trkpt>
      <trkpt lat="47.61943" lon="-0.69542">
        <ele>23.1</ele>
        <time>2014-04-19T17:43:04Z</time>
      </trkpt>
      <trkpt lat="47.61929" lon="-0.69534">
        <ele>23.1</ele>
        <time>2014-04-19T17:43:07Z</time>
      </trkpt>
      <trkpt lat="47.61899" lon="-0.69517">
        <ele>23.5</ele>
        <time>2014-04-19T17:43:13Z</time>
      </trkpt>
      <trkpt lat="47.61859" lon="-0.69505">
        <ele>21.9</ele>
        <time>2014-04-19T17:43:21Z</time>
      </trkpt>
      <trkpt lat="47.61827" lon="-0.69501">
        <ele>21.1</ele>
        <time>2014-04-19T17:43:27Z</time>
      </trkpt>
      <trkpt lat="47.61821" lon="-0.695">
        <ele>21</ele>
        <time>2014-04-19T17:43:28Z</time>
      </trkpt>
      <trkpt lat="47.61794" lon="-0.69499">
        <ele>20.6</ele>
        <time>2014-04-19T17:43:33Z</time>
      </trkpt>
      <trkpt lat="47.61755" lon="-0.69488">
        <ele>19.1</ele>
        <time>2014-04-19T17:43:40Z</time>
      </trkpt>
      <trkpt lat="47.61746" lon="-0.69487">
        <ele>19</ele>
        <time>2014-04-19T17:43:42Z</time>
      </trkpt>
      <trkpt lat="47.61723" lon="-0.69484">
        <ele>19</ele>
        <time>2014-04-19T17:43:48Z</time>
      </trkpt>
      <trkpt lat="47.61707" lon="-0.69478">
        <ele>19.5</ele>
        <time>2014-04-19T17:43:54Z</time>
      </trkpt>
      <trkpt lat="47.61697" lon="-0.69477">
        <ele>19.8</ele>
        <time>2014-04-19T17:43:59Z</time>
      </trkpt>
      <trkpt lat="47.61682" lon="-0.69475">
        <ele>20.3</ele>
        <time>2014-04-19T17:44:05Z</time>
      </trkpt>
      <trkpt lat="47.6167" lon="-0.69474">
        <ele>20.8</ele>
        <time>2014-04-19T17:44:11Z</time>
      </trkpt>
      <trkpt lat="47.61668" lon="-0.69474">
        <ele>20.9</ele>
        <time>2014-04-20T07:24:54Z</time>
      </trkpt>
      <trkpt lat="47.61665" lon="-0.69491">
        <ele>19.6</ele>
        <time>2014-04-20T07:24:49Z</time>
      </trkpt>
      <trkpt lat="47.61662" lon="-0.69525">
        <ele>19</ele>
        <time>2014-04-20T07:24:42Z</time>
      </trkpt>
      <trkpt lat="47.61661" lon="-0.69558">
        <ele>19</ele>
        <time>2014-04-20T07:24:36Z</time>
      </trkpt>
      <trkpt lat="47.61659" lon="-0.69604">
        <ele>19</ele>
        <time>2014-04-20T07:24:28Z</time>
      </trkpt>
      <trkpt lat="47.61656" lon="-0.69637">
        <ele>19</ele>
        <time>2014-04-20T07:24:22Z</time>
      </trkpt>
      <trkpt lat="47.61659" lon="-0.69669">
        <ele>19</ele>
        <time>2014-04-20T07:24:16Z</time>
      </trkpt>
      <trkpt lat="47.61661" lon="-0.69709">
        <ele>19</ele>
        <time>2014-04-20T07:24:10Z</time>
      </trkpt>
      <trkpt lat="47.61664" lon="-0.69762">
        <ele>19</ele>
        <time>2014-04-20T07:24:02Z</time>
      </trkpt>
      <trkpt lat="47.61666" lon="-0.69821">
        <ele>19</ele>
      </trkpt>
      <trkpt lat="47.61669" lon="-0.69902">
        <ele>19</ele>
      </trkpt>
      <trkpt lat="47.61668" lon="-0.69965">
        <ele>19</ele>
      </trkpt>
      <trkpt lat="47.6167" lon="-0.70028">
        <ele>19</ele>
      </trkpt>
      <trkpt lat="47.61671" lon="-0.70065">
        <ele>19</ele>
      </trkpt>
      <trkpt lat="47.61675" lon="-0.70088">
        <ele>19</ele>
        <time>2014-04-20T07:23:07Z</time>
      </trkpt>
      <trkpt lat="47.6169" lon="-0.70129">
        <ele>19</ele>
        <time>2014-04-20T07:22:59Z</time>
      </trkpt>
      <trkpt lat="47.61702" lon="-0.70154">
        <ele>19</ele>
        <time>2014-04-20T07:22:52Z</time>
      </trkpt>
      <trkpt lat="47.6172" lon="-0.70184">
        <ele>19</ele>
        <time>2014-04-20T07:22:45Z</time>
      </trkpt>
      <trkpt lat="47.61729" lon="-0.70198">
        <ele>19</ele>
        <time>2014-04-20T07:22:40Z</time>
      </trkpt>
      <trkpt lat="47.61736" lon="-0.70209">
        <ele>19</ele>
        <time>2014-04-20T07:22:34Z</time>
      </trkpt>
      <trkpt lat="47.61744" lon="-0.70218">
        <ele>19</ele>
        <time>2014-04-20T07:22:29Z</time>
      </trkpt>
      <trkpt lat="47.61758" lon="-0.70234">
        <ele>19</ele>
        <time>2014-04-20T07:22:22Z</time>
      </trkpt>
      <trkpt lat="47.61769" lon="-0.70248">
        <ele>19</ele>
        <time>2014-04-20T07:22:16Z</time>
      </trkpt>
      <trkpt lat="47.61782" lon="-0.70265">
        <ele>19</ele>
        <time>2014-04-20T07:22:10Z</time>
      </trkpt>
      <trkpt lat="47.61791" lon="-0.70272">
        <ele>19</ele>
        <time>2014-04-20T07:22:05Z</time>
      </trkpt>
      <trkpt lat="47.61805" lon="-0.70283">
        <ele>19</ele>
        <time>2014-04-20T07:21:58Z</time>
      </trkpt>
      <trkpt lat="47.61816" lon="-0.70295">
        <ele>19</ele>
        <time>2014-04-20T07:21:52Z</time>
      </trkpt>
      <trkpt lat="47.61824" lon="-0.7031">
        <ele>19</ele>
        <time>2014-04-20T07:21:47Z</time>
      </trkpt>
      <trkpt lat="47.61835" lon="-0.70323">
        <ele>19</ele>
        <time>2014-04-20T07:21:42Z</time>
      </trkpt>
      <trkpt lat="47.61851" lon="-0.70334">
        <ele>19</ele>
        <time>2014-04-20T07:21:36Z</time>
      </trkpt>
      <trkpt lat="47.61866" lon="-0.70334">
        <ele>19</ele>
        <time>2014-04-20T07:21:30Z</time>
      </trkpt>
      <trkpt lat="47.61883" lon="-0.70319">
        <ele>19</ele>
        <time>2014-04-20T07:21:23Z</time>
      </trkpt>
      <trkpt lat="47.61931" lon="-0.70229">
        <ele>21.4</ele>
        <time>2014-04-20T07:21:16Z</time>
      </trkpt>
      <trkpt lat="47.6194" lon="-0.70236">
        <ele>21.8</ele>
        <time>2014-04-20T07:21:09Z</time>
      </trkpt>
      <trkpt lat="47.6195" lon="-0.70243">
        <ele>22.2</ele>
        <time>2014-04-20T07:21:04Z</time>
      </trkpt>
      <trkpt lat="47.61958" lon="-0.70247">
        <ele>22.5</ele>
        <time>2014-04-20T07:20:59Z</time>
      </trkpt>
      <trkpt lat="47.61964" lon="-0.70251">
        <ele>22.7</ele>
        <time>2014-04-20T07:20:56Z</time>
      </trkpt>
      <trkpt lat="47.61968" lon="-0.70252">
        <ele>22.8</ele>
        <time>2014-04-20T07:20:53Z</time>
      </trkpt>
      <trkpt lat="47.61991" lon="-0.70259">
        <ele>23.6</ele>
        <time>2014-04-20T07:20:48Z</time>
      </trkpt>
      <trkpt lat="47.61996" lon="-0.7026">
        <ele>23.8</ele>
        <time>2014-04-20T07:20:47Z</time>
      </trkpt>
      <trkpt lat="47.6201" lon="-0.70262">
        <ele>24.3</ele>
        <time>2014-04-20T07:20:43Z</time>
      </trkpt>
      <trkpt lat="47.62025" lon="-0.70263">
        <ele>24.9</ele>
        <time>2014-04-20T07:20:39Z</time>
      </trkpt>
      <trkpt lat="47.62031" lon="-0.70262">
        <ele>24.8</ele>
        <time>2014-04-20T07:20:37Z</time>
      </trkpt>
      <trkpt lat="47.62042" lon="-0.7026">
        <ele>24.1</ele>
        <time>2014-04-20T07:20:33Z</time>
      </trkpt>
      <trkpt lat="47.62059" lon="-0.70251">
        <ele>24.3</ele>
        <time>2014-04-20T07:20:27Z</time>
      </trkpt>
      <trkpt lat="47.62078" lon="-0.70237">
        <ele>23.8</ele>
        <time>2014-04-20T07:20:21Z</time>
      </trkpt>
      <trkpt lat="47.62101" lon="-0.70227">
        <ele>25.1</ele>
        <time>2014-04-20T07:20:15Z</time>
      </trkpt>
      <trkpt lat="47.62116" lon="-0.70232">
        <ele>24</ele>
        <time>2014-04-20T07:20:10Z</time>
      </trkpt>
      <trkpt lat="47.62149" lon="-0.70233">
        <ele>24.8</ele>
        <time>2014-04-20T07:20:03Z</time>
      </trkpt>
      <trkpt lat="47.62174" lon="-0.70232">
        <ele>26.2</ele>
        <time>2014-04-20T07:19:57Z</time>
      </trkpt>
      <trkpt lat="47.6219" lon="-0.70229">
        <ele>26.9</ele>
        <time>2014-04-20T07:19:52Z</time>
      </trkpt>
      <trkpt lat="47.62217" lon="-0.70239">
        <ele>27.3</ele>
        <time>2014-04-20T07:19:45Z</time>
      </trkpt>
      <trkpt lat="47.62239" lon="-0.7025">
        <ele>27.6</ele>
        <time>2014-04-20T07:19:40Z</time>
      </trkpt>
      <trkpt lat="47.62258" lon="-0.7026">
        <ele>27.1</ele>
        <time>2014-04-20T07:19:36Z</time>
      </trkpt>
      <trkpt lat="47.6227" lon="-0.70269">
        <ele>26.9</ele>
        <time>2014-04-20T07:19:32Z</time>
      </trkpt>
      <trkpt lat="47.62279" lon="-0.70275">
        <ele>27.1</ele>
        <time>2014-04-20T07:19:30Z</time>
      </trkpt>
      <trkpt lat="47.623" lon="-0.7029">
        <ele>26.1</ele>
        <time>2014-04-20T07:19:24Z</time>
      </trkpt>
      <trkpt lat="47.62317" lon="-0.70305">
        <ele>26.4</ele>
        <time>2014-04-20T07:19:20Z</time>
      </trkpt>
      <trkpt lat="47.62338" lon="-0.70325">
        <ele>25.9</ele>
        <time>2014-04-20T07:19:15Z</time>
      </trkpt>
      <trkpt lat="47.62356" lon="-0.70345">
        <ele>26.4</ele>
        <time>2014-04-20T07:19:11Z</time>
      </trkpt>
      <trkpt lat="47.6237" lon="-0.7036">
        <ele>26.4</ele>
        <time>2014-04-20T07:19:06Z</time>
      </trkpt>
      <trkpt lat="47.6238" lon="-0.70369">
        <ele>26.4</ele>
        <time>2014-04-20T07:19:02Z</time>
      </trkpt>
      <trkpt lat="47.62396" lon="-0.70374">
        <ele>27.4</ele>
        <time>2014-04-20T07:18:55Z</time>
      </trkpt>
      <trkpt lat="47.62396" lon="-0.70381">
        <ele>26.5</ele>
        <time>2014-04-20T07:18:34Z</time>
      </trkpt>
      <trkpt lat="47.62402" lon="-0.70384">
        <ele>26.5</ele>
        <time>2014-04-20T07:18:29Z</time>
      </trkpt>
      <trkpt lat="47.62403" lon="-0.70385">
        <ele>26.5</ele>
        <time>2014-04-20T07:18:28Z</time>
      </trkpt>
      <trkpt lat="47.62413" lon="-0.70386">
        <ele>27</ele>
        <time>2014-04-20T07:18:22Z</time>
      </trkpt>
      <trkpt lat="47.62415" lon="-0.70385">
        <ele>27.2</ele>
        <time>2014-04-20T07:18:21Z</time>
      </trkpt>
      <trkpt lat="47.62415" lon="-0.70385">
        <ele>27.2</ele>
        <time>2014-04-20T07:18:21Z</time>
      </trkpt>
      <trkpt lat="47.62428" lon="-0.70373">
        <ele>26.9</ele>
        <time>2014-04-20T07:18:15Z</time>
      </trkpt>
      <trkpt lat="47.62432" lon="-0.70366">
        <ele>27.3</ele>
        <time>2014-04-20T07:18:13Z</time>
      </trkpt>
      <trkpt lat="47.6243" lon="-0.70369">
        <ele>27.1</ele>
        <time>2014-04-20T07:18:08Z</time>
      </trkpt>
      <trkpt lat="47.62434" lon="-0.70362">
        <ele>27.7</ele>
        <time>2014-04-20T07:17:53Z</time>
      </trkpt>
      <trkpt lat="47.62432" lon="-0.70366">
        <ele>27.2</ele>
        <time>2014-04-20T07:17:48Z</time>
      </trkpt>
      <trkpt lat="47.62426" lon="-0.70375">
        <ele>26.9</ele>
        <time>2014-04-20T07:17:43Z</time>
      </trkpt>
      <trkpt lat="47.6242" lon="-0.70382">
        <ele>27</ele>
        <time>2014-04-20T07:17:37Z</time>
      </trkpt>
      <trkpt lat="47.62419" lon="-0.70383">
        <ele>27</ele>
        <time>2014-04-20T07:17:36Z</time>
      </trkpt>
      <trkpt lat="47.62419" lon="-0.70383">
        <ele>27.1</ele>
        <time>2014-04-20T07:17:30Z</time>
      </trkpt>
      <trkpt lat="47.62437" lon="-0.70435">
        <ele>19</ele>
        <time>2014-04-20T07:17:26Z</time>
      </trkpt>
      <trkpt lat="47.62451" lon="-0.70452">
        <ele>19</ele>
        <time>2014-04-20T07:17:20Z</time>
      </trkpt>
      <trkpt lat="47.62463" lon="-0.70471">
        <ele>19</ele>
        <time>2014-04-20T07:17:14Z</time>
      </trkpt>
      <trkpt lat="47.62471" lon="-0.70486">
        <ele>19</ele>
        <time>2014-04-20T07:17:09Z</time>
      </trkpt>
      <trkpt lat="47.62484" lon="-0.70505">
        <ele>19</ele>
        <time>2014-04-20T07:17:02Z</time>
      </trkpt>
      <trkpt lat="47.62506" lon="-0.70565">
        <ele>19.2</ele>
      </trkpt>
      <trkpt lat="47.62527" lon="-0.70628">
        <ele>19.4</ele>
      </trkpt>
      <trkpt lat="47.62558" lon="-0.70717">
        <ele>19.1</ele>
      </trkpt>
      <trkpt lat="47.62569" lon="-0.70747">
        <ele>19.5</ele>
      </trkpt>
      <trkpt lat="47.62574" lon="-0.70759">
        <ele>19.5</ele>
        <time>2014-04-20T07:16:16Z</time>
      </trkpt>
      <trkpt lat="47.62578" lon="-0.70771">
        <ele>19.2</ele>
        <time>2014-04-20T07:16:14Z</time>
      </trkpt>
      <trkpt lat="47.626" lon="-0.70825">
        <ele>19.6</ele>
        <time>2014-04-20T07:16:05Z</time>
      </trkpt>
      <trkpt lat="47.62619" lon="-0.70871">
        <ele>19.3</ele>
        <time>2014-04-20T07:15:57Z</time>
      </trkpt>
      <trkpt lat="47.62637" lon="-0.70906">
        <ele>19.3</ele>
        <time>2014-04-20T07:15:50Z</time>
      </trkpt>
      <trkpt lat="47.62651" lon="-0.70935">
        <ele>19.4</ele>
        <time>2014-04-20T07:15:44Z</time>
      </trkpt>
      <trkpt lat="47.62659" lon="-0.70948">
        <ele>19.6</ele>
        <time>2014-04-20T07:15:41Z</time>
      </trkpt>
      <trkpt lat="47.62678" lon="-0.70982">
        <ele>19.3</ele>
        <time>2014-04-20T07:15:34Z</time>
      </trkpt>
      <trkpt lat="47.62695" lon="-0.71012">
        <ele>19</ele>
        <time>2014-04-20T07:15:27Z</time>
      </trkpt>
      <trkpt lat="47.62716" lon="-0.7104">
        <ele>19.4</ele>
        <time>2014-04-20T07:15:20Z</time>
      </trkpt>
      <trkpt lat="47.62731" lon="-0.71059">
        <ele>19.3</ele>
        <time>2014-04-20T07:15:14Z</time>
      </trkpt>
      <trkpt lat="47.62752" lon="-0.71081">
        <ele>19.1</ele>
        <time>2014-04-20T07:15:06Z</time>
      </trkpt>
      <trkpt lat="47.62778" lon="-0.71108">
        <ele>19.1</ele>
        <time>2014-04-20T07:14:58Z</time>
      </trkpt>
      <trkpt lat="47.62787" lon="-0.71117">
        <ele>19.3</ele>
        <time>2014-04-20T07:14:54Z</time>
      </trkpt>
      <trkpt lat="47.62791" lon="-0.71112">
        <ele>19.5</ele>
        <time>2014-04-20T07:13:28Z</time>
      </trkpt>
      <trkpt lat="47.6279" lon="-0.71113">
        <ele>19.4</ele>
        <time>2014-04-20T07:13:19Z</time>
      </trkpt>
      <trkpt lat="47.62792" lon="-0.71114">
        <ele>19.5</ele>
        <time>2014-04-20T07:13:17Z</time>
      </trkpt>
      <trkpt lat="47.62808" lon="-0.71128">
        <ele>19.4</ele>
        <time>2014-04-20T07:13:10Z</time>
      </trkpt>
      <trkpt lat="47.62825" lon="-0.71144">
        <ele>19.6</ele>
        <time>2014-04-20T07:13:04Z</time>
      </trkpt>
      <trkpt lat="47.62846" lon="-0.71161">
        <ele>19.6</ele>
        <time>2014-04-20T07:12:58Z</time>
      </trkpt>
      <trkpt lat="47.62859" lon="-0.71172">
        <ele>19.7</ele>
        <time>2014-04-20T07:12:54Z</time>
      </trkpt>
      <trkpt lat="47.62873" lon="-0.71183">
        <ele>19.7</ele>
        <time>2014-04-20T07:12:50Z</time>
      </trkpt>
      <trkpt lat="47.62888" lon="-0.71198">
        <ele>19.8</ele>
        <time>2014-04-20T07:12:46Z</time>
      </trkpt>
      <trkpt lat="47.62906" lon="-0.71217">
        <ele>19.2</ele>
        <time>2014-04-20T07:12:42Z</time>
      </trkpt>
      <trkpt lat="47.62949" lon="-0.71297">
        <ele>20.6</ele>
        <time>2014-04-20T07:12:38Z</time>
      </trkpt>
      <trkpt lat="47.62949" lon="-0.71297">
        <ele>20.6</ele>
        <time>2014-04-20T07:12:37Z</time>
      </trkpt>
      <trkpt lat="47.62949" lon="-0.71297">
        <ele>20.6</ele>
        <time>2014-04-20T07:12:31Z</time>
      </trkpt>
      <trkpt lat="47.62945" lon="-0.71302">
        <ele>20.8</ele>
        <time>2014-04-20T07:12:26Z</time>
      </trkpt>
      <trkpt lat="47.62913" lon="-0.71333">
        <ele>19.4</ele>
        <time>2014-04-20T07:12:16Z</time>
      </trkpt>
      <trkpt lat="47.62887" lon="-0.71361">
        <ele>22</ele>
      </trkpt>
      <trkpt lat="47.62887" lon="-0.7136">
        <ele>22</ele>
      </trkpt>
      <trkpt lat="47.6285" lon="-0.71397">
        <ele>22.8</ele>
      </trkpt>
      <trkpt lat="47.62786" lon="-0.71448">
        <ele>24.1</ele>
      </trkpt>
      <trkpt lat="47.62714" lon="-0.71483">
        <ele>25.6</ele>
      </trkpt>
    </trkseg>
  </trk>
</gpx>